<?xml version="1.0" encoding="UTF-8" standalone="no" ?>
<gpx xmlns="http://www.topografix.com/GPX/1/1" xmlns:xsi="http://www.w3.org/2001/XMLSchema-instance" xsi:schemaLocation="http://www.topografix.com/GPX/1/1 http://www.topografix.com/GPX/1/1/gpx.xsd" version="1.1" creator="VisuGPX - https://www.visugpx.com">
  <metadata>
    <name>Chevreuse</name>
  </metadata>
  <wpt lat="48.70286" lon="2.07174">
    <ele>80</ele>
    <name><![CDATA[Point de passage 1]]></name>
  </wpt>
  <wpt lat="48.69661" lon="2.03815">
    <ele>166</ele>
    <name><![CDATA[xylophone]]></name>
  </wpt>
  <wpt lat="48.69942" lon="1.97978">
    <ele>105</ele>
    <name><![CDATA[abribus]]></name>
  </wpt>
  <wpt lat="48.70269" lon="1.98284">
    <ele>97</ele>
    <name><![CDATA[abri]]></name>
  </wpt>
  <wpt lat="48.70745" lon="2.03141">
    <ele>107</ele>
    <name><![CDATA[chemin difficile a voir]]></name>
  </wpt>
  <wpt lat="48.70742" lon="2.03941">
    <ele>82</ele>
    <name><![CDATA[l'alchimiste]]></name>
  </wpt>
  <wpt lat="48.70285" lon="2.07073">
    <ele>85</ele>
    <name><![CDATA[Point de passage 7]]></name>
  </wpt>
  <trk>
    <name><![CDATA[les 4 chÃ¢teaux de la vallÃ©e de Chevreuse (bis)]]></name>
    <extensions>
      <line xmlns="http://www.topografix.com/GPX/gpx_style/0/2">
        <color>0000FF</color>
        <width>4</width>
      </line>
    </extensions>
    <trkseg>
      <trkpt lat="48.70286" lon="2.07174">
        <ele>80</ele>
        <time>2025-07-06T08:50:34.000Z</time>
      </trkpt>
      <trkpt lat="48.70284" lon="2.07139">
        <ele>85</ele>
        <time>2025-07-06T08:50:54.000Z</time>
      </trkpt>
      <trkpt lat="48.70281" lon="2.07106">
        <ele>78</ele>
        <time>2025-07-06T08:51:15.000Z</time>
      </trkpt>
      <trkpt lat="48.70287" lon="2.07072">
        <ele>83</ele>
        <time>2025-07-06T09:05:56.000Z</time>
      </trkpt>
      <trkpt lat="48.70286" lon="2.07038">
        <ele>83</ele>
        <time>2025-07-06T09:06:12.000Z</time>
      </trkpt>
      <trkpt lat="48.70289" lon="2.07003">
        <ele>82</ele>
        <time>2025-07-06T09:06:40.000Z</time>
      </trkpt>
      <trkpt lat="48.70297" lon="2.0697">
        <ele>80</ele>
        <time>2025-07-06T09:07:03.000Z</time>
      </trkpt>
      <trkpt lat="48.7032" lon="2.06974">
        <ele>78</ele>
        <time>2025-07-06T09:07:26.000Z</time>
      </trkpt>
      <trkpt lat="48.70322" lon="2.06939">
        <ele>76</ele>
        <time>2025-07-06T09:07:47.000Z</time>
      </trkpt>
      <trkpt lat="48.70309" lon="2.06911">
        <ele>76</ele>
        <time>2025-07-06T09:08:07.000Z</time>
      </trkpt>
      <trkpt lat="48.70299" lon="2.0688">
        <ele>77</ele>
        <time>2025-07-06T09:08:25.000Z</time>
      </trkpt>
      <trkpt lat="48.70286" lon="2.06849">
        <ele>77</ele>
        <time>2025-07-06T09:08:44.000Z</time>
      </trkpt>
      <trkpt lat="48.70276" lon="2.06819">
        <ele>77</ele>
        <time>2025-07-06T09:09:01.000Z</time>
      </trkpt>
      <trkpt lat="48.70268" lon="2.06787">
        <ele>77</ele>
        <time>2025-07-06T09:09:17.000Z</time>
      </trkpt>
      <trkpt lat="48.70267" lon="2.06752">
        <ele>84</ele>
        <time>2025-07-06T09:09:47.000Z</time>
      </trkpt>
      <trkpt lat="48.70262" lon="2.06719">
        <ele>81</ele>
        <time>2025-07-06T09:10:03.000Z</time>
      </trkpt>
      <trkpt lat="48.70256" lon="2.06685">
        <ele>80</ele>
        <time>2025-07-06T09:10:19.000Z</time>
      </trkpt>
      <trkpt lat="48.7025" lon="2.06651">
        <ele>76</ele>
        <time>2025-07-06T09:10:37.000Z</time>
      </trkpt>
      <trkpt lat="48.70242" lon="2.06619">
        <ele>78</ele>
        <time>2025-07-06T09:10:53.000Z</time>
      </trkpt>
      <trkpt lat="48.70235" lon="2.06585">
        <ele>78</ele>
        <time>2025-07-06T09:11:10.000Z</time>
      </trkpt>
      <trkpt lat="48.70228" lon="2.06552">
        <ele>78</ele>
        <time>2025-07-06T09:11:27.000Z</time>
      </trkpt>
      <trkpt lat="48.70227" lon="2.06517">
        <ele>79</ele>
        <time>2025-07-06T09:11:44.000Z</time>
      </trkpt>
      <trkpt lat="48.70228" lon="2.06483">
        <ele>80</ele>
        <time>2025-07-06T09:12:01.000Z</time>
      </trkpt>
      <trkpt lat="48.70229" lon="2.06448">
        <ele>81</ele>
        <time>2025-07-06T09:12:18.000Z</time>
      </trkpt>
      <trkpt lat="48.70231" lon="2.06413">
        <ele>81</ele>
        <time>2025-07-06T09:12:35.000Z</time>
      </trkpt>
      <trkpt lat="48.70231" lon="2.06377">
        <ele>81</ele>
        <time>2025-07-06T09:12:53.000Z</time>
      </trkpt>
      <trkpt lat="48.70231" lon="2.06343">
        <ele>80</ele>
        <time>2025-07-06T09:13:10.000Z</time>
      </trkpt>
      <trkpt lat="48.70234" lon="2.06308">
        <ele>82</ele>
        <time>2025-07-06T09:13:28.000Z</time>
      </trkpt>
      <trkpt lat="48.70237" lon="2.06274">
        <ele>84</ele>
        <time>2025-07-06T09:13:45.000Z</time>
      </trkpt>
      <trkpt lat="48.70246" lon="2.06243">
        <ele>84</ele>
        <time>2025-07-06T09:14:02.000Z</time>
      </trkpt>
      <trkpt lat="48.70254" lon="2.06209">
        <ele>85</ele>
        <time>2025-07-06T09:14:20.000Z</time>
      </trkpt>
      <trkpt lat="48.70258" lon="2.06174">
        <ele>84</ele>
        <time>2025-07-06T09:14:38.000Z</time>
      </trkpt>
      <trkpt lat="48.7026" lon="2.0614">
        <ele>82</ele>
        <time>2025-07-06T09:14:55.000Z</time>
      </trkpt>
      <trkpt lat="48.70262" lon="2.06106">
        <ele>81</ele>
        <time>2025-07-06T09:15:12.000Z</time>
      </trkpt>
      <trkpt lat="48.70261" lon="2.06071">
        <ele>82</ele>
        <time>2025-07-06T09:15:30.000Z</time>
      </trkpt>
      <trkpt lat="48.70263" lon="2.06036">
        <ele>85</ele>
        <time>2025-07-06T09:15:48.000Z</time>
      </trkpt>
      <trkpt lat="48.70264" lon="2.06">
        <ele>85</ele>
        <time>2025-07-06T09:16:06.000Z</time>
      </trkpt>
      <trkpt lat="48.70266" lon="2.05964">
        <ele>86</ele>
        <time>2025-07-06T09:16:24.000Z</time>
      </trkpt>
      <trkpt lat="48.70266" lon="2.05929">
        <ele>84</ele>
        <time>2025-07-06T09:16:42.000Z</time>
      </trkpt>
      <trkpt lat="48.70269" lon="2.05894">
        <ele>83</ele>
        <time>2025-07-06T09:17:00.000Z</time>
      </trkpt>
      <trkpt lat="48.70272" lon="2.0586">
        <ele>83</ele>
        <time>2025-07-06T09:17:16.000Z</time>
      </trkpt>
      <trkpt lat="48.7027" lon="2.05825">
        <ele>81</ele>
        <time>2025-07-06T09:17:34.000Z</time>
      </trkpt>
      <trkpt lat="48.70272" lon="2.05791">
        <ele>86</ele>
        <time>2025-07-06T09:17:51.000Z</time>
      </trkpt>
      <trkpt lat="48.7027" lon="2.05756">
        <ele>83</ele>
        <time>2025-07-06T09:18:09.000Z</time>
      </trkpt>
      <trkpt lat="48.70263" lon="2.05723">
        <ele>82</ele>
        <time>2025-07-06T09:18:27.000Z</time>
      </trkpt>
      <trkpt lat="48.70253" lon="2.05691">
        <ele>81</ele>
        <time>2025-07-06T09:18:45.000Z</time>
      </trkpt>
      <trkpt lat="48.70246" lon="2.05658">
        <ele>80</ele>
        <time>2025-07-06T09:19:03.000Z</time>
      </trkpt>
      <trkpt lat="48.70238" lon="2.05625">
        <ele>79</ele>
        <time>2025-07-06T09:19:21.000Z</time>
      </trkpt>
      <trkpt lat="48.70231" lon="2.05591">
        <ele>80</ele>
        <time>2025-07-06T09:19:39.000Z</time>
      </trkpt>
      <trkpt lat="48.70238" lon="2.05558">
        <ele>82</ele>
        <time>2025-07-06T09:19:58.000Z</time>
      </trkpt>
      <trkpt lat="48.7026" lon="2.05552">
        <ele>82</ele>
        <time>2025-07-06T09:20:17.000Z</time>
      </trkpt>
      <trkpt lat="48.70284" lon="2.05555">
        <ele>80</ele>
        <time>2025-07-06T09:20:35.000Z</time>
      </trkpt>
      <trkpt lat="48.70307" lon="2.05558">
        <ele>78</ele>
        <time>2025-07-06T09:20:52.000Z</time>
      </trkpt>
      <trkpt lat="48.7033" lon="2.05561">
        <ele>79</ele>
        <time>2025-07-06T09:21:09.000Z</time>
      </trkpt>
      <trkpt lat="48.70354" lon="2.05566">
        <ele>79</ele>
        <time>2025-07-06T09:21:27.000Z</time>
      </trkpt>
      <trkpt lat="48.70376" lon="2.05569">
        <ele>79</ele>
        <time>2025-07-06T09:21:43.000Z</time>
      </trkpt>
      <trkpt lat="48.70399" lon="2.05567">
        <ele>77</ele>
        <time>2025-07-06T09:22:00.000Z</time>
      </trkpt>
      <trkpt lat="48.7042" lon="2.05552">
        <ele>76</ele>
        <time>2025-07-06T09:22:19.000Z</time>
      </trkpt>
      <trkpt lat="48.70434" lon="2.05525">
        <ele>75</ele>
        <time>2025-07-06T09:22:52.000Z</time>
      </trkpt>
      <trkpt lat="48.70441" lon="2.05491">
        <ele>73</ele>
        <time>2025-07-06T09:23:11.000Z</time>
      </trkpt>
      <trkpt lat="48.70451" lon="2.05459">
        <ele>75</ele>
        <time>2025-07-06T09:23:30.000Z</time>
      </trkpt>
      <trkpt lat="48.70466" lon="2.05433">
        <ele>75</ele>
        <time>2025-07-06T09:23:50.000Z</time>
      </trkpt>
      <trkpt lat="48.70477" lon="2.05401">
        <ele>75</ele>
        <time>2025-07-06T09:24:10.000Z</time>
      </trkpt>
      <trkpt lat="48.7049" lon="2.05374">
        <ele>76</ele>
        <time>2025-07-06T09:24:28.000Z</time>
      </trkpt>
      <trkpt lat="48.70505" lon="2.05348">
        <ele>74</ele>
        <time>2025-07-06T09:24:47.000Z</time>
      </trkpt>
      <trkpt lat="48.70513" lon="2.05315">
        <ele>74</ele>
        <time>2025-07-06T09:25:12.000Z</time>
      </trkpt>
      <trkpt lat="48.70514" lon="2.0528">
        <ele>73</ele>
        <time>2025-07-06T09:25:37.000Z</time>
      </trkpt>
      <trkpt lat="48.70529" lon="2.05255">
        <ele>75</ele>
        <time>2025-07-06T09:26:02.000Z</time>
      </trkpt>
      <trkpt lat="48.70544" lon="2.05229">
        <ele>75</ele>
        <time>2025-07-06T09:26:25.000Z</time>
      </trkpt>
      <trkpt lat="48.70564" lon="2.0521">
        <ele>75</ele>
        <time>2025-07-06T09:26:47.000Z</time>
      </trkpt>
      <trkpt lat="48.70562" lon="2.05175">
        <ele>74</ele>
        <time>2025-07-06T09:27:04.000Z</time>
      </trkpt>
      <trkpt lat="48.70584" lon="2.0516">
        <ele>81</ele>
        <time>2025-07-06T09:27:22.000Z</time>
      </trkpt>
      <trkpt lat="48.70607" lon="2.05158">
        <ele>79</ele>
        <time>2025-07-06T09:27:43.000Z</time>
      </trkpt>
      <trkpt lat="48.7061" lon="2.05122">
        <ele>78</ele>
        <time>2025-07-06T09:28:03.000Z</time>
      </trkpt>
      <trkpt lat="48.70612" lon="2.05088">
        <ele>76</ele>
        <time>2025-07-06T09:28:32.000Z</time>
      </trkpt>
      <trkpt lat="48.70619" lon="2.05054">
        <ele>78</ele>
        <time>2025-07-06T09:28:49.000Z</time>
      </trkpt>
      <trkpt lat="48.70625" lon="2.05022">
        <ele>79</ele>
        <time>2025-07-06T09:29:07.000Z</time>
      </trkpt>
      <trkpt lat="48.70633" lon="2.04989">
        <ele>76</ele>
        <time>2025-07-06T09:29:26.000Z</time>
      </trkpt>
      <trkpt lat="48.70639" lon="2.04955">
        <ele>76</ele>
        <time>2025-07-06T09:29:45.000Z</time>
      </trkpt>
      <trkpt lat="48.70637" lon="2.04919">
        <ele>78</ele>
        <time>2025-07-06T09:30:08.000Z</time>
      </trkpt>
      <trkpt lat="48.70641" lon="2.04885">
        <ele>77</ele>
        <time>2025-07-06T09:30:26.000Z</time>
      </trkpt>
      <trkpt lat="48.70648" lon="2.04852">
        <ele>78</ele>
        <time>2025-07-06T09:30:44.000Z</time>
      </trkpt>
      <trkpt lat="48.70653" lon="2.04818">
        <ele>77</ele>
        <time>2025-07-06T09:31:09.000Z</time>
      </trkpt>
      <trkpt lat="48.70655" lon="2.04783">
        <ele>76</ele>
        <time>2025-07-06T09:31:30.000Z</time>
      </trkpt>
      <trkpt lat="48.70652" lon="2.04747">
        <ele>76</ele>
        <time>2025-07-06T09:32:02.000Z</time>
      </trkpt>
      <trkpt lat="48.70646" lon="2.04713">
        <ele>78</ele>
        <time>2025-07-06T09:32:19.000Z</time>
      </trkpt>
      <trkpt lat="48.70646" lon="2.04679">
        <ele>77</ele>
        <time>2025-07-06T09:32:35.000Z</time>
      </trkpt>
      <trkpt lat="48.70651" lon="2.04645">
        <ele>81</ele>
        <time>2025-07-06T09:32:59.000Z</time>
      </trkpt>
      <trkpt lat="48.70655" lon="2.0461">
        <ele>80</ele>
        <time>2025-07-06T09:33:16.000Z</time>
      </trkpt>
      <trkpt lat="48.70659" lon="2.04575">
        <ele>83</ele>
        <time>2025-07-06T09:33:44.000Z</time>
      </trkpt>
      <trkpt lat="48.70661" lon="2.04541">
        <ele>79</ele>
        <time>2025-07-06T09:34:02.000Z</time>
      </trkpt>
      <trkpt lat="48.70665" lon="2.04506">
        <ele>79</ele>
        <time>2025-07-06T09:34:20.000Z</time>
      </trkpt>
      <trkpt lat="48.70665" lon="2.04472">
        <ele>79</ele>
        <time>2025-07-06T09:34:39.000Z</time>
      </trkpt>
      <trkpt lat="48.70667" lon="2.04438">
        <ele>81</ele>
        <time>2025-07-06T09:34:54.000Z</time>
      </trkpt>
      <trkpt lat="48.70672" lon="2.04404">
        <ele>79</ele>
        <time>2025-07-06T09:35:20.000Z</time>
      </trkpt>
      <trkpt lat="48.7068" lon="2.04371">
        <ele>80</ele>
        <time>2025-07-06T09:36:50.000Z</time>
      </trkpt>
      <trkpt lat="48.70681" lon="2.04336">
        <ele>81</ele>
        <time>2025-07-06T09:37:12.000Z</time>
      </trkpt>
      <trkpt lat="48.70676" lon="2.04301">
        <ele>79</ele>
        <time>2025-07-06T09:37:34.000Z</time>
      </trkpt>
      <trkpt lat="48.70674" lon="2.04266">
        <ele>79</ele>
        <time>2025-07-06T09:37:53.000Z</time>
      </trkpt>
      <trkpt lat="48.70675" lon="2.04232">
        <ele>79</ele>
        <time>2025-07-06T09:38:13.000Z</time>
      </trkpt>
      <trkpt lat="48.70675" lon="2.04197">
        <ele>77</ele>
        <time>2025-07-06T09:38:35.000Z</time>
      </trkpt>
      <trkpt lat="48.70674" lon="2.04162">
        <ele>78</ele>
        <time>2025-07-06T09:39:08.000Z</time>
      </trkpt>
      <trkpt lat="48.70672" lon="2.04127">
        <ele>79</ele>
        <time>2025-07-06T09:39:34.000Z</time>
      </trkpt>
      <trkpt lat="48.7067" lon="2.04093">
        <ele>80</ele>
        <time>2025-07-06T09:39:55.000Z</time>
      </trkpt>
      <trkpt lat="48.70668" lon="2.04058">
        <ele>78</ele>
        <time>2025-07-06T09:40:21.000Z</time>
      </trkpt>
      <trkpt lat="48.70667" lon="2.04023">
        <ele>77</ele>
        <time>2025-07-06T09:40:41.000Z</time>
      </trkpt>
      <trkpt lat="48.70666" lon="2.03989">
        <ele>78</ele>
        <time>2025-07-06T09:41:08.000Z</time>
      </trkpt>
      <trkpt lat="48.70652" lon="2.03963">
        <ele>80</ele>
        <time>2025-07-06T09:41:32.000Z</time>
      </trkpt>
      <trkpt lat="48.70634" lon="2.0394">
        <ele>80</ele>
        <time>2025-07-06T09:41:48.000Z</time>
      </trkpt>
      <trkpt lat="48.70617" lon="2.03917">
        <ele>80</ele>
        <time>2025-07-06T09:42:09.000Z</time>
      </trkpt>
      <trkpt lat="48.70598" lon="2.03895">
        <ele>78</ele>
        <time>2025-07-06T09:42:29.000Z</time>
      </trkpt>
      <trkpt lat="48.70579" lon="2.03872">
        <ele>76</ele>
        <time>2025-07-06T09:42:47.000Z</time>
      </trkpt>
      <trkpt lat="48.70563" lon="2.03848">
        <ele>80</ele>
        <time>2025-07-06T09:43:05.000Z</time>
      </trkpt>
      <trkpt lat="48.70545" lon="2.03824">
        <ele>81</ele>
        <time>2025-07-06T09:43:23.000Z</time>
      </trkpt>
      <trkpt lat="48.70547" lon="2.0379">
        <ele>79</ele>
        <time>2025-07-06T09:43:41.000Z</time>
      </trkpt>
      <trkpt lat="48.70529" lon="2.03768">
        <ele>83</ele>
        <time>2025-07-06T09:43:59.000Z</time>
      </trkpt>
      <trkpt lat="48.70507" lon="2.03766">
        <ele>85</ele>
        <time>2025-07-06T09:44:15.000Z</time>
      </trkpt>
      <trkpt lat="48.70484" lon="2.0377">
        <ele>82</ele>
        <time>2025-07-06T09:44:35.000Z</time>
      </trkpt>
      <trkpt lat="48.70461" lon="2.03778">
        <ele>83</ele>
        <time>2025-07-06T09:44:53.000Z</time>
      </trkpt>
      <trkpt lat="48.7045" lon="2.03808">
        <ele>77</ele>
        <time>2025-07-06T09:45:14.000Z</time>
      </trkpt>
      <trkpt lat="48.70447" lon="2.03842">
        <ele>79</ele>
        <time>2025-07-06T09:45:31.000Z</time>
      </trkpt>
      <trkpt lat="48.70446" lon="2.03878">
        <ele>83</ele>
        <time>2025-07-06T09:45:49.000Z</time>
      </trkpt>
      <trkpt lat="48.70441" lon="2.03912">
        <ele>83</ele>
        <time>2025-07-06T09:46:07.000Z</time>
      </trkpt>
      <trkpt lat="48.70425" lon="2.03936">
        <ele>84</ele>
        <time>2025-07-06T09:46:27.000Z</time>
      </trkpt>
      <trkpt lat="48.70403" lon="2.03944">
        <ele>84</ele>
        <time>2025-07-06T09:46:45.000Z</time>
      </trkpt>
      <trkpt lat="48.7038" lon="2.03948">
        <ele>86</ele>
        <time>2025-07-06T09:47:03.000Z</time>
      </trkpt>
      <trkpt lat="48.70357" lon="2.03955">
        <ele>91</ele>
        <time>2025-07-06T09:47:21.000Z</time>
      </trkpt>
      <trkpt lat="48.70339" lon="2.0398">
        <ele>92</ele>
        <time>2025-07-06T09:47:42.000Z</time>
      </trkpt>
      <trkpt lat="48.7032" lon="2.03999">
        <ele>96</ele>
        <time>2025-07-06T09:48:03.000Z</time>
      </trkpt>
      <trkpt lat="48.70298" lon="2.04014">
        <ele>94</ele>
        <time>2025-07-06T09:48:22.000Z</time>
      </trkpt>
      <trkpt lat="48.70277" lon="2.04029">
        <ele>95</ele>
        <time>2025-07-06T09:48:41.000Z</time>
      </trkpt>
      <trkpt lat="48.70255" lon="2.0404">
        <ele>98</ele>
        <time>2025-07-06T09:49:02.000Z</time>
      </trkpt>
      <trkpt lat="48.70233" lon="2.04047">
        <ele>99</ele>
        <time>2025-07-06T09:49:23.000Z</time>
      </trkpt>
      <trkpt lat="48.70211" lon="2.04054">
        <ele>102</ele>
        <time>2025-07-06T09:49:42.000Z</time>
      </trkpt>
      <trkpt lat="48.70188" lon="2.04061">
        <ele>102</ele>
        <time>2025-07-06T09:50:03.000Z</time>
      </trkpt>
      <trkpt lat="48.70165" lon="2.04067">
        <ele>104</ele>
        <time>2025-07-06T09:50:24.000Z</time>
      </trkpt>
      <trkpt lat="48.70143" lon="2.04074">
        <ele>108</ele>
        <time>2025-07-06T09:50:45.000Z</time>
      </trkpt>
      <trkpt lat="48.7012" lon="2.04081">
        <ele>107</ele>
        <time>2025-07-06T09:51:10.000Z</time>
      </trkpt>
      <trkpt lat="48.70097" lon="2.04086">
        <ele>110</ele>
        <time>2025-07-06T09:51:30.000Z</time>
      </trkpt>
      <trkpt lat="48.70074" lon="2.04088">
        <ele>113</ele>
        <time>2025-07-06T09:52:31.000Z</time>
      </trkpt>
      <trkpt lat="48.70051" lon="2.04083">
        <ele>114</ele>
        <time>2025-07-06T09:52:53.000Z</time>
      </trkpt>
      <trkpt lat="48.70028" lon="2.04078">
        <ele>119</ele>
        <time>2025-07-06T09:53:16.000Z</time>
      </trkpt>
      <trkpt lat="48.70005" lon="2.04076">
        <ele>126</ele>
        <time>2025-07-06T09:53:43.000Z</time>
      </trkpt>
      <trkpt lat="48.69988" lon="2.0405">
        <ele>131</ele>
        <time>2025-07-06T09:54:22.000Z</time>
      </trkpt>
      <trkpt lat="48.69967" lon="2.04037">
        <ele>131</ele>
        <time>2025-07-06T09:54:45.000Z</time>
      </trkpt>
      <trkpt lat="48.69948" lon="2.04018">
        <ele>136</ele>
        <time>2025-07-06T09:55:13.000Z</time>
      </trkpt>
      <trkpt lat="48.69925" lon="2.04007">
        <ele>140</ele>
        <time>2025-07-06T09:55:39.000Z</time>
      </trkpt>
      <trkpt lat="48.69903" lon="2.03994">
        <ele>146</ele>
        <time>2025-07-06T09:56:06.000Z</time>
      </trkpt>
      <trkpt lat="48.69882" lon="2.03981">
        <ele>150</ele>
        <time>2025-07-06T09:56:44.000Z</time>
      </trkpt>
      <trkpt lat="48.69862" lon="2.03967">
        <ele>156</ele>
        <time>2025-07-06T09:57:11.000Z</time>
      </trkpt>
      <trkpt lat="48.6984" lon="2.03955">
        <ele>158</ele>
        <time>2025-07-06T09:57:38.000Z</time>
      </trkpt>
      <trkpt lat="48.6982" lon="2.03939">
        <ele>160</ele>
        <time>2025-07-06T09:58:00.000Z</time>
      </trkpt>
      <trkpt lat="48.69799" lon="2.03923">
        <ele>162</ele>
        <time>2025-07-06T09:58:24.000Z</time>
      </trkpt>
      <trkpt lat="48.69775" lon="2.0392">
        <ele>164</ele>
        <time>2025-07-06T09:58:48.000Z</time>
      </trkpt>
      <trkpt lat="48.69753" lon="2.0391">
        <ele>166</ele>
        <time>2025-07-06T09:59:11.000Z</time>
      </trkpt>
      <trkpt lat="48.69732" lon="2.03897">
        <ele>166</ele>
        <time>2025-07-06T09:59:30.000Z</time>
      </trkpt>
      <trkpt lat="48.6971" lon="2.03882">
        <ele>166</ele>
        <time>2025-07-06T09:59:50.000Z</time>
      </trkpt>
      <trkpt lat="48.69689" lon="2.03869">
        <ele>167</ele>
        <time>2025-07-06T10:00:09.000Z</time>
      </trkpt>
      <trkpt lat="48.69674" lon="2.03843">
        <ele>165</ele>
        <time>2025-07-06T10:00:26.000Z</time>
      </trkpt>
      <trkpt lat="48.69665" lon="2.03812">
        <ele>166</ele>
        <time>2025-07-06T10:00:46.000Z</time>
      </trkpt>
      <trkpt lat="48.69661" lon="2.03815">
        <ele>166</ele>
        <time>2025-07-06T10:02:58.000Z</time>
      </trkpt>
      <trkpt lat="48.6964" lon="2.038">
        <ele>166</ele>
        <time>2025-07-06T10:05:02.000Z</time>
      </trkpt>
      <trkpt lat="48.69617" lon="2.03797">
        <ele>165</ele>
        <time>2025-07-06T10:06:10.000Z</time>
      </trkpt>
      <trkpt lat="48.69596" lon="2.03777">
        <ele>165</ele>
        <time>2025-07-06T10:06:52.000Z</time>
      </trkpt>
      <trkpt lat="48.69573" lon="2.03764">
        <ele>165</ele>
        <time>2025-07-06T10:07:08.000Z</time>
      </trkpt>
      <trkpt lat="48.69552" lon="2.03752">
        <ele>164</ele>
        <time>2025-07-06T10:07:23.000Z</time>
      </trkpt>
      <trkpt lat="48.69531" lon="2.03736">
        <ele>164</ele>
        <time>2025-07-06T10:07:39.000Z</time>
      </trkpt>
      <trkpt lat="48.69508" lon="2.03725">
        <ele>162</ele>
        <time>2025-07-06T10:07:58.000Z</time>
      </trkpt>
      <trkpt lat="48.69487" lon="2.03708">
        <ele>161</ele>
        <time>2025-07-06T10:08:15.000Z</time>
      </trkpt>
      <trkpt lat="48.69442" lon="2.03741">
        <ele>159</ele>
        <time>2025-07-06T10:08:32.000Z</time>
      </trkpt>
      <trkpt lat="48.69446" lon="2.03676">
        <ele>157</ele>
        <time>2025-07-06T10:08:49.000Z</time>
      </trkpt>
      <trkpt lat="48.69424" lon="2.03666">
        <ele>156</ele>
        <time>2025-07-06T10:09:06.000Z</time>
      </trkpt>
      <trkpt lat="48.69402" lon="2.03652">
        <ele>153</ele>
        <time>2025-07-06T10:09:25.000Z</time>
      </trkpt>
      <trkpt lat="48.69381" lon="2.03638">
        <ele>151</ele>
        <time>2025-07-06T10:09:44.000Z</time>
      </trkpt>
      <trkpt lat="48.69358" lon="2.03621">
        <ele>150</ele>
        <time>2025-07-06T10:10:08.000Z</time>
      </trkpt>
      <trkpt lat="48.69336" lon="2.03605">
        <ele>150</ele>
        <time>2025-07-06T10:10:27.000Z</time>
      </trkpt>
      <trkpt lat="48.69315" lon="2.03594">
        <ele>151</ele>
        <time>2025-07-06T10:10:43.000Z</time>
      </trkpt>
      <trkpt lat="48.69296" lon="2.03577">
        <ele>151</ele>
        <time>2025-07-06T10:10:58.000Z</time>
      </trkpt>
      <trkpt lat="48.69275" lon="2.03562">
        <ele>153</ele>
        <time>2025-07-06T10:11:18.000Z</time>
      </trkpt>
      <trkpt lat="48.69254" lon="2.03548">
        <ele>154</ele>
        <time>2025-07-06T10:11:36.000Z</time>
      </trkpt>
      <trkpt lat="48.69233" lon="2.03535">
        <ele>155</ele>
        <time>2025-07-06T10:11:57.000Z</time>
      </trkpt>
      <trkpt lat="48.69213" lon="2.03515">
        <ele>155</ele>
        <time>2025-07-06T10:12:17.000Z</time>
      </trkpt>
      <trkpt lat="48.6919" lon="2.0351">
        <ele>157</ele>
        <time>2025-07-06T10:15:14.000Z</time>
      </trkpt>
      <trkpt lat="48.69168" lon="2.03501">
        <ele>157</ele>
        <time>2025-07-06T10:15:32.000Z</time>
      </trkpt>
      <trkpt lat="48.69149" lon="2.03479">
        <ele>158</ele>
        <time>2025-07-06T10:15:49.000Z</time>
      </trkpt>
      <trkpt lat="48.69133" lon="2.03454">
        <ele>157</ele>
        <time>2025-07-06T10:16:05.000Z</time>
      </trkpt>
      <trkpt lat="48.69118" lon="2.03426">
        <ele>158</ele>
        <time>2025-07-06T10:16:27.000Z</time>
      </trkpt>
      <trkpt lat="48.69114" lon="2.03393">
        <ele>160</ele>
        <time>2025-07-06T10:16:45.000Z</time>
      </trkpt>
      <trkpt lat="48.69124" lon="2.03363">
        <ele>159</ele>
        <time>2025-07-06T10:17:03.000Z</time>
      </trkpt>
      <trkpt lat="48.69137" lon="2.03335">
        <ele>159</ele>
        <time>2025-07-06T10:17:20.000Z</time>
      </trkpt>
      <trkpt lat="48.6914" lon="2.03299">
        <ele>158</ele>
        <time>2025-07-06T10:17:38.000Z</time>
      </trkpt>
      <trkpt lat="48.69146" lon="2.03265">
        <ele>158</ele>
        <time>2025-07-06T10:17:57.000Z</time>
      </trkpt>
      <trkpt lat="48.6915" lon="2.03231">
        <ele>158</ele>
        <time>2025-07-06T10:18:17.000Z</time>
      </trkpt>
      <trkpt lat="48.69156" lon="2.03197">
        <ele>157</ele>
        <time>2025-07-06T10:18:35.000Z</time>
      </trkpt>
      <trkpt lat="48.69151" lon="2.03163">
        <ele>156</ele>
        <time>2025-07-06T10:18:52.000Z</time>
      </trkpt>
      <trkpt lat="48.69157" lon="2.03128">
        <ele>157</ele>
        <time>2025-07-06T10:19:07.000Z</time>
      </trkpt>
      <trkpt lat="48.69145" lon="2.03098">
        <ele>156</ele>
        <time>2025-07-06T10:19:25.000Z</time>
      </trkpt>
      <trkpt lat="48.69132" lon="2.03069">
        <ele>157</ele>
        <time>2025-07-06T10:19:41.000Z</time>
      </trkpt>
      <trkpt lat="48.6912" lon="2.03041">
        <ele>157</ele>
        <time>2025-07-06T10:20:00.000Z</time>
      </trkpt>
      <trkpt lat="48.69113" lon="2.03008">
        <ele>158</ele>
        <time>2025-07-06T10:20:19.000Z</time>
      </trkpt>
      <trkpt lat="48.69102" lon="2.02979">
        <ele>158</ele>
        <time>2025-07-06T10:20:35.000Z</time>
      </trkpt>
      <trkpt lat="48.69092" lon="2.02942">
        <ele>158</ele>
        <time>2025-07-06T10:20:55.000Z</time>
      </trkpt>
      <trkpt lat="48.69079" lon="2.02914">
        <ele>158</ele>
        <time>2025-07-06T10:21:13.000Z</time>
      </trkpt>
      <trkpt lat="48.6907" lon="2.02883">
        <ele>158</ele>
        <time>2025-07-06T10:21:30.000Z</time>
      </trkpt>
      <trkpt lat="48.69058" lon="2.02849">
        <ele>159</ele>
        <time>2025-07-06T10:21:50.000Z</time>
      </trkpt>
      <trkpt lat="48.69047" lon="2.02819">
        <ele>159</ele>
        <time>2025-07-06T10:22:07.000Z</time>
      </trkpt>
      <trkpt lat="48.69037" lon="2.02788">
        <ele>159</ele>
        <time>2025-07-06T10:22:24.000Z</time>
      </trkpt>
      <trkpt lat="48.69025" lon="2.02757">
        <ele>161</ele>
        <time>2025-07-06T10:22:44.000Z</time>
      </trkpt>
      <trkpt lat="48.69016" lon="2.02722">
        <ele>161</ele>
        <time>2025-07-06T10:23:03.000Z</time>
      </trkpt>
      <trkpt lat="48.69004" lon="2.02693">
        <ele>161</ele>
        <time>2025-07-06T10:23:19.000Z</time>
      </trkpt>
      <trkpt lat="48.68995" lon="2.02662">
        <ele>162</ele>
        <time>2025-07-06T10:23:36.000Z</time>
      </trkpt>
      <trkpt lat="48.68984" lon="2.02632">
        <ele>162</ele>
        <time>2025-07-06T10:23:56.000Z</time>
      </trkpt>
      <trkpt lat="48.68971" lon="2.02602">
        <ele>162</ele>
        <time>2025-07-06T10:24:13.000Z</time>
      </trkpt>
      <trkpt lat="48.68963" lon="2.0257">
        <ele>163</ele>
        <time>2025-07-06T10:24:32.000Z</time>
      </trkpt>
      <trkpt lat="48.68953" lon="2.02539">
        <ele>164</ele>
        <time>2025-07-06T10:24:46.000Z</time>
      </trkpt>
      <trkpt lat="48.68944" lon="2.02504">
        <ele>164</ele>
        <time>2025-07-06T10:25:06.000Z</time>
      </trkpt>
      <trkpt lat="48.68931" lon="2.02475">
        <ele>165</ele>
        <time>2025-07-06T10:25:26.000Z</time>
      </trkpt>
      <trkpt lat="48.68921" lon="2.02441">
        <ele>165</ele>
        <time>2025-07-06T10:25:44.000Z</time>
      </trkpt>
      <trkpt lat="48.68907" lon="2.02413">
        <ele>165</ele>
        <time>2025-07-06T10:26:00.000Z</time>
      </trkpt>
      <trkpt lat="48.68886" lon="2.02398">
        <ele>166</ele>
        <time>2025-07-06T10:26:21.000Z</time>
      </trkpt>
      <trkpt lat="48.68865" lon="2.02386">
        <ele>165</ele>
        <time>2025-07-06T10:26:37.000Z</time>
      </trkpt>
      <trkpt lat="48.68843" lon="2.02373">
        <ele>168</ele>
        <time>2025-07-06T10:26:56.000Z</time>
      </trkpt>
      <trkpt lat="48.68822" lon="2.0236">
        <ele>166</ele>
        <time>2025-07-06T10:27:14.000Z</time>
      </trkpt>
      <trkpt lat="48.68801" lon="2.02346">
        <ele>165</ele>
        <time>2025-07-06T10:27:32.000Z</time>
      </trkpt>
      <trkpt lat="48.68778" lon="2.0234">
        <ele>164</ele>
        <time>2025-07-06T10:27:49.000Z</time>
      </trkpt>
      <trkpt lat="48.68756" lon="2.02345">
        <ele>163</ele>
        <time>2025-07-06T10:28:05.000Z</time>
      </trkpt>
      <trkpt lat="48.68733" lon="2.02355">
        <ele>161</ele>
        <time>2025-07-06T10:28:27.000Z</time>
      </trkpt>
      <trkpt lat="48.68711" lon="2.02365">
        <ele>160</ele>
        <time>2025-07-06T10:28:42.000Z</time>
      </trkpt>
      <trkpt lat="48.68689" lon="2.02378">
        <ele>158</ele>
        <time>2025-07-06T10:29:00.000Z</time>
      </trkpt>
      <trkpt lat="48.68669" lon="2.02398">
        <ele>157</ele>
        <time>2025-07-06T10:29:20.000Z</time>
      </trkpt>
      <trkpt lat="48.68651" lon="2.0242">
        <ele>159</ele>
        <time>2025-07-06T10:29:36.000Z</time>
      </trkpt>
      <trkpt lat="48.68634" lon="2.02445">
        <ele>160</ele>
        <time>2025-07-06T10:29:54.000Z</time>
      </trkpt>
      <trkpt lat="48.68619" lon="2.02476">
        <ele>161</ele>
        <time>2025-07-06T10:30:16.000Z</time>
      </trkpt>
      <trkpt lat="48.68606" lon="2.02507">
        <ele>161</ele>
        <time>2025-07-06T10:30:33.000Z</time>
      </trkpt>
      <trkpt lat="48.68593" lon="2.02537">
        <ele>162</ele>
        <time>2025-07-06T10:30:52.000Z</time>
      </trkpt>
      <trkpt lat="48.68579" lon="2.02564">
        <ele>162</ele>
        <time>2025-07-06T10:31:10.000Z</time>
      </trkpt>
      <trkpt lat="48.68566" lon="2.02592">
        <ele>162</ele>
        <time>2025-07-06T10:31:26.000Z</time>
      </trkpt>
      <trkpt lat="48.68551" lon="2.02618">
        <ele>162</ele>
        <time>2025-07-06T10:31:46.000Z</time>
      </trkpt>
      <trkpt lat="48.68539" lon="2.02647">
        <ele>163</ele>
        <time>2025-07-06T10:32:04.000Z</time>
      </trkpt>
      <trkpt lat="48.68525" lon="2.02675">
        <ele>163</ele>
        <time>2025-07-06T10:32:24.000Z</time>
      </trkpt>
      <trkpt lat="48.68515" lon="2.02709">
        <ele>166</ele>
        <time>2025-07-06T10:32:42.000Z</time>
      </trkpt>
      <trkpt lat="48.68502" lon="2.02738">
        <ele>167</ele>
        <time>2025-07-06T10:33:00.000Z</time>
      </trkpt>
      <trkpt lat="48.68491" lon="2.02769">
        <ele>168</ele>
        <time>2025-07-06T10:33:19.000Z</time>
      </trkpt>
      <trkpt lat="48.68479" lon="2.02799">
        <ele>168</ele>
        <time>2025-07-06T10:33:37.000Z</time>
      </trkpt>
      <trkpt lat="48.68463" lon="2.02824">
        <ele>168</ele>
        <time>2025-07-06T10:33:53.000Z</time>
      </trkpt>
      <trkpt lat="48.68445" lon="2.02845">
        <ele>168</ele>
        <time>2025-07-06T10:34:12.000Z</time>
      </trkpt>
      <trkpt lat="48.68425" lon="2.02867">
        <ele>168</ele>
        <time>2025-07-06T10:34:29.000Z</time>
      </trkpt>
      <trkpt lat="48.68407" lon="2.0289">
        <ele>168</ele>
        <time>2025-07-06T10:34:48.000Z</time>
      </trkpt>
      <trkpt lat="48.68386" lon="2.02904">
        <ele>168</ele>
        <time>2025-07-06T10:35:07.000Z</time>
      </trkpt>
      <trkpt lat="48.68365" lon="2.02919">
        <ele>167</ele>
        <time>2025-07-06T10:35:25.000Z</time>
      </trkpt>
      <trkpt lat="48.68342" lon="2.0293">
        <ele>168</ele>
        <time>2025-07-06T10:35:44.000Z</time>
      </trkpt>
      <trkpt lat="48.68322" lon="2.02946">
        <ele>168</ele>
        <time>2025-07-06T10:36:01.000Z</time>
      </trkpt>
      <trkpt lat="48.683" lon="2.0295">
        <ele>168</ele>
        <time>2025-07-06T10:36:16.000Z</time>
      </trkpt>
      <trkpt lat="48.68276" lon="2.02951">
        <ele>167</ele>
        <time>2025-07-06T10:36:36.000Z</time>
      </trkpt>
      <trkpt lat="48.68253" lon="2.02956">
        <ele>165</ele>
        <time>2025-07-06T10:36:53.000Z</time>
      </trkpt>
      <trkpt lat="48.68232" lon="2.0297">
        <ele>167</ele>
        <time>2025-07-06T10:37:12.000Z</time>
      </trkpt>
      <trkpt lat="48.68209" lon="2.02976">
        <ele>165</ele>
        <time>2025-07-06T10:37:28.000Z</time>
      </trkpt>
      <trkpt lat="48.68189" lon="2.02991">
        <ele>165</ele>
        <time>2025-07-06T10:37:45.000Z</time>
      </trkpt>
      <trkpt lat="48.68167" lon="2.02994">
        <ele>165</ele>
        <time>2025-07-06T10:38:04.000Z</time>
      </trkpt>
      <trkpt lat="48.68144" lon="2.0299">
        <ele>164</ele>
        <time>2025-07-06T10:38:20.000Z</time>
      </trkpt>
      <trkpt lat="48.68121" lon="2.02994">
        <ele>166</ele>
        <time>2025-07-06T10:38:37.000Z</time>
      </trkpt>
      <trkpt lat="48.68099" lon="2.02985">
        <ele>167</ele>
        <time>2025-07-06T10:38:52.000Z</time>
      </trkpt>
      <trkpt lat="48.68076" lon="2.02988">
        <ele>166</ele>
        <time>2025-07-06T10:39:15.000Z</time>
      </trkpt>
      <trkpt lat="48.68054" lon="2.0298">
        <ele>165</ele>
        <time>2025-07-06T10:39:32.000Z</time>
      </trkpt>
      <trkpt lat="48.68034" lon="2.02963">
        <ele>164</ele>
        <time>2025-07-06T10:40:01.000Z</time>
      </trkpt>
      <trkpt lat="48.68015" lon="2.02943">
        <ele>163</ele>
        <time>2025-07-06T10:40:17.000Z</time>
      </trkpt>
      <trkpt lat="48.67993" lon="2.02936">
        <ele>164</ele>
        <time>2025-07-06T10:40:37.000Z</time>
      </trkpt>
      <trkpt lat="48.67973" lon="2.02919">
        <ele>163</ele>
        <time>2025-07-06T10:40:56.000Z</time>
      </trkpt>
      <trkpt lat="48.67971" lon="2.02883">
        <ele>165</ele>
        <time>2025-07-06T10:41:23.000Z</time>
      </trkpt>
      <trkpt lat="48.67978" lon="2.0285">
        <ele>164</ele>
        <time>2025-07-06T10:41:43.000Z</time>
      </trkpt>
      <trkpt lat="48.67979" lon="2.02815">
        <ele>163</ele>
        <time>2025-07-06T10:42:28.000Z</time>
      </trkpt>
      <trkpt lat="48.67982" lon="2.02781">
        <ele>164</ele>
        <time>2025-07-06T10:42:49.000Z</time>
      </trkpt>
      <trkpt lat="48.6799" lon="2.02748">
        <ele>162</ele>
        <time>2025-07-06T10:43:07.000Z</time>
      </trkpt>
      <trkpt lat="48.67989" lon="2.02714">
        <ele>156</ele>
        <time>2025-07-06T10:43:31.000Z</time>
      </trkpt>
      <trkpt lat="48.67975" lon="2.02685">
        <ele>153</ele>
        <time>2025-07-06T10:43:52.000Z</time>
      </trkpt>
      <trkpt lat="48.67954" lon="2.02665">
        <ele>151</ele>
        <time>2025-07-06T10:44:11.000Z</time>
      </trkpt>
      <trkpt lat="48.67931" lon="2.02658">
        <ele>151</ele>
        <time>2025-07-06T10:44:32.000Z</time>
      </trkpt>
      <trkpt lat="48.67902" lon="2.02642">
        <ele>151</ele>
        <time>2025-07-06T10:45:02.000Z</time>
      </trkpt>
      <trkpt lat="48.67886" lon="2.02615">
        <ele>150</ele>
        <time>2025-07-06T10:45:28.000Z</time>
      </trkpt>
      <trkpt lat="48.67873" lon="2.02587">
        <ele>150</ele>
        <time>2025-07-06T10:45:45.000Z</time>
      </trkpt>
      <trkpt lat="48.6786" lon="2.02557">
        <ele>152</ele>
        <time>2025-07-06T10:46:07.000Z</time>
      </trkpt>
      <trkpt lat="48.67859" lon="2.02521">
        <ele>156</ele>
        <time>2025-07-06T10:46:26.000Z</time>
      </trkpt>
      <trkpt lat="48.6786" lon="2.02487">
        <ele>159</ele>
        <time>2025-07-06T10:46:49.000Z</time>
      </trkpt>
      <trkpt lat="48.67865" lon="2.02452">
        <ele>163</ele>
        <time>2025-07-06T10:47:10.000Z</time>
      </trkpt>
      <trkpt lat="48.67864" lon="2.02418">
        <ele>166</ele>
        <time>2025-07-06T10:47:32.000Z</time>
      </trkpt>
      <trkpt lat="48.67869" lon="2.02384">
        <ele>167</ele>
        <time>2025-07-06T10:47:59.000Z</time>
      </trkpt>
      <trkpt lat="48.67876" lon="2.02352">
        <ele>170</ele>
        <time>2025-07-06T10:49:09.000Z</time>
      </trkpt>
      <trkpt lat="48.67862" lon="2.02325">
        <ele>170</ele>
        <time>2025-07-06T10:51:55.000Z</time>
      </trkpt>
      <trkpt lat="48.67863" lon="2.0229">
        <ele>170</ele>
        <time>2025-07-06T10:52:15.000Z</time>
      </trkpt>
      <trkpt lat="48.67867" lon="2.02254">
        <ele>171</ele>
        <time>2025-07-06T10:52:35.000Z</time>
      </trkpt>
      <trkpt lat="48.67869" lon="2.02218">
        <ele>171</ele>
        <time>2025-07-06T10:52:51.000Z</time>
      </trkpt>
      <trkpt lat="48.67873" lon="2.02182">
        <ele>170</ele>
        <time>2025-07-06T10:53:10.000Z</time>
      </trkpt>
      <trkpt lat="48.67866" lon="2.02149">
        <ele>170</ele>
        <time>2025-07-06T10:53:25.000Z</time>
      </trkpt>
      <trkpt lat="48.67867" lon="2.02115">
        <ele>170</ele>
        <time>2025-07-06T10:53:50.000Z</time>
      </trkpt>
      <trkpt lat="48.67866" lon="2.02081">
        <ele>169</ele>
        <time>2025-07-06T10:54:05.000Z</time>
      </trkpt>
      <trkpt lat="48.67865" lon="2.02046">
        <ele>169</ele>
        <time>2025-07-06T10:54:27.000Z</time>
      </trkpt>
      <trkpt lat="48.67868" lon="2.02009">
        <ele>170</ele>
        <time>2025-07-06T10:54:43.000Z</time>
      </trkpt>
      <trkpt lat="48.67876" lon="2.01973">
        <ele>169</ele>
        <time>2025-07-06T10:55:05.000Z</time>
      </trkpt>
      <trkpt lat="48.6788" lon="2.01938">
        <ele>170</ele>
        <time>2025-07-06T10:55:18.000Z</time>
      </trkpt>
      <trkpt lat="48.67884" lon="2.019">
        <ele>171</ele>
        <time>2025-07-06T10:55:40.000Z</time>
      </trkpt>
      <trkpt lat="48.67884" lon="2.01866">
        <ele>171</ele>
        <time>2025-07-06T10:56:01.000Z</time>
      </trkpt>
      <trkpt lat="48.67888" lon="2.01831">
        <ele>171</ele>
        <time>2025-07-06T10:56:19.000Z</time>
      </trkpt>
      <trkpt lat="48.67894" lon="2.01796">
        <ele>171</ele>
        <time>2025-07-06T10:56:35.000Z</time>
      </trkpt>
      <trkpt lat="48.67895" lon="2.01762">
        <ele>172</ele>
        <time>2025-07-06T10:56:51.000Z</time>
      </trkpt>
      <trkpt lat="48.67895" lon="2.01727">
        <ele>172</ele>
        <time>2025-07-06T10:57:13.000Z</time>
      </trkpt>
      <trkpt lat="48.67901" lon="2.01694">
        <ele>172</ele>
        <time>2025-07-06T10:57:27.000Z</time>
      </trkpt>
      <trkpt lat="48.67885" lon="2.01668">
        <ele>172</ele>
        <time>2025-07-06T10:57:41.000Z</time>
      </trkpt>
      <trkpt lat="48.67882" lon="2.01633">
        <ele>172</ele>
        <time>2025-07-06T10:58:01.000Z</time>
      </trkpt>
      <trkpt lat="48.67876" lon="2.01597">
        <ele>172</ele>
        <time>2025-07-06T10:58:20.000Z</time>
      </trkpt>
      <trkpt lat="48.67869" lon="2.01562">
        <ele>172</ele>
        <time>2025-07-06T10:58:42.000Z</time>
      </trkpt>
      <trkpt lat="48.67866" lon="2.01528">
        <ele>172</ele>
        <time>2025-07-06T10:58:56.000Z</time>
      </trkpt>
      <trkpt lat="48.6786" lon="2.01494">
        <ele>171</ele>
        <time>2025-07-06T10:59:21.000Z</time>
      </trkpt>
      <trkpt lat="48.67862" lon="2.01456">
        <ele>170</ele>
        <time>2025-07-06T10:59:42.000Z</time>
      </trkpt>
      <trkpt lat="48.67864" lon="2.01421">
        <ele>170</ele>
        <time>2025-07-06T11:00:01.000Z</time>
      </trkpt>
      <trkpt lat="48.67864" lon="2.01386">
        <ele>169</ele>
        <time>2025-07-06T11:00:19.000Z</time>
      </trkpt>
      <trkpt lat="48.67867" lon="2.01352">
        <ele>168</ele>
        <time>2025-07-06T11:00:38.000Z</time>
      </trkpt>
      <trkpt lat="48.67887" lon="2.01337">
        <ele>164</ele>
        <time>2025-07-06T11:01:11.000Z</time>
      </trkpt>
      <trkpt lat="48.67906" lon="2.01317">
        <ele>160</ele>
        <time>2025-07-06T11:01:35.000Z</time>
      </trkpt>
      <trkpt lat="48.6793" lon="2.01315">
        <ele>155</ele>
        <time>2025-07-06T11:02:06.000Z</time>
      </trkpt>
      <trkpt lat="48.67945" lon="2.01288">
        <ele>149</ele>
        <time>2025-07-06T11:02:57.000Z</time>
      </trkpt>
      <trkpt lat="48.67963" lon="2.01263">
        <ele>145</ele>
        <time>2025-07-06T11:03:21.000Z</time>
      </trkpt>
      <trkpt lat="48.67977" lon="2.01234">
        <ele>145</ele>
        <time>2025-07-06T11:03:39.000Z</time>
      </trkpt>
      <trkpt lat="48.67982" lon="2.012">
        <ele>148</ele>
        <time>2025-07-06T11:04:03.000Z</time>
      </trkpt>
      <trkpt lat="48.67984" lon="2.0116">
        <ele>150</ele>
        <time>2025-07-06T11:04:24.000Z</time>
      </trkpt>
      <trkpt lat="48.67985" lon="2.01124">
        <ele>153</ele>
        <time>2025-07-06T11:04:43.000Z</time>
      </trkpt>
      <trkpt lat="48.67985" lon="2.01083">
        <ele>156</ele>
        <time>2025-07-06T11:05:07.000Z</time>
      </trkpt>
      <trkpt lat="48.67984" lon="2.01049">
        <ele>158</ele>
        <time>2025-07-06T11:05:29.000Z</time>
      </trkpt>
      <trkpt lat="48.67986" lon="2.01015">
        <ele>160</ele>
        <time>2025-07-06T11:05:43.000Z</time>
      </trkpt>
      <trkpt lat="48.67991" lon="2.00982">
        <ele>162</ele>
        <time>2025-07-06T11:06:03.000Z</time>
      </trkpt>
      <trkpt lat="48.68001" lon="2.00949">
        <ele>165</ele>
        <time>2025-07-06T11:06:31.000Z</time>
      </trkpt>
      <trkpt lat="48.67998" lon="2.00915">
        <ele>166</ele>
        <time>2025-07-06T11:06:53.000Z</time>
      </trkpt>
      <trkpt lat="48.68014" lon="2.0089">
        <ele>168</ele>
        <time>2025-07-06T11:07:28.000Z</time>
      </trkpt>
      <trkpt lat="48.68034" lon="2.00874">
        <ele>169</ele>
        <time>2025-07-06T11:08:02.000Z</time>
      </trkpt>
      <trkpt lat="48.68056" lon="2.00882">
        <ele>170</ele>
        <time>2025-07-06T11:08:24.000Z</time>
      </trkpt>
      <trkpt lat="48.68078" lon="2.00897">
        <ele>172</ele>
        <time>2025-07-06T11:08:45.000Z</time>
      </trkpt>
      <trkpt lat="48.68096" lon="2.00918">
        <ele>172</ele>
        <time>2025-07-06T11:09:05.000Z</time>
      </trkpt>
      <trkpt lat="48.68112" lon="2.00943">
        <ele>172</ele>
        <time>2025-07-06T11:09:23.000Z</time>
      </trkpt>
      <trkpt lat="48.6813" lon="2.00965">
        <ele>172</ele>
        <time>2025-07-06T11:09:41.000Z</time>
      </trkpt>
      <trkpt lat="48.68145" lon="2.00995">
        <ele>172</ele>
        <time>2025-07-06T11:10:00.000Z</time>
      </trkpt>
      <trkpt lat="48.68159" lon="2.01022">
        <ele>171</ele>
        <time>2025-07-06T11:10:20.000Z</time>
      </trkpt>
      <trkpt lat="48.68182" lon="2.01009">
        <ele>171</ele>
        <time>2025-07-06T11:10:42.000Z</time>
      </trkpt>
      <trkpt lat="48.68183" lon="2.00973">
        <ele>172</ele>
        <time>2025-07-06T11:11:01.000Z</time>
      </trkpt>
      <trkpt lat="48.68184" lon="2.00939">
        <ele>173</ele>
        <time>2025-07-06T11:11:21.000Z</time>
      </trkpt>
      <trkpt lat="48.68185" lon="2.00904">
        <ele>173</ele>
        <time>2025-07-06T11:11:39.000Z</time>
      </trkpt>
      <trkpt lat="48.68184" lon="2.00869">
        <ele>173</ele>
        <time>2025-07-06T11:11:58.000Z</time>
      </trkpt>
      <trkpt lat="48.68186" lon="2.00834">
        <ele>174</ele>
        <time>2025-07-06T11:12:16.000Z</time>
      </trkpt>
      <trkpt lat="48.68187" lon="2.00799">
        <ele>174</ele>
        <time>2025-07-06T11:12:34.000Z</time>
      </trkpt>
      <trkpt lat="48.68188" lon="2.00765">
        <ele>173</ele>
        <time>2025-07-06T11:12:52.000Z</time>
      </trkpt>
      <trkpt lat="48.68192" lon="2.0073">
        <ele>174</ele>
        <time>2025-07-06T11:13:10.000Z</time>
      </trkpt>
      <trkpt lat="48.68202" lon="2.00698">
        <ele>174</ele>
        <time>2025-07-06T11:13:28.000Z</time>
      </trkpt>
      <trkpt lat="48.6821" lon="2.00665">
        <ele>174</ele>
        <time>2025-07-06T11:13:46.000Z</time>
      </trkpt>
      <trkpt lat="48.68218" lon="2.00632">
        <ele>174</ele>
        <time>2025-07-06T11:14:04.000Z</time>
      </trkpt>
      <trkpt lat="48.68229" lon="2.00601">
        <ele>175</ele>
        <time>2025-07-06T11:14:20.000Z</time>
      </trkpt>
      <trkpt lat="48.68241" lon="2.0057">
        <ele>174</ele>
        <time>2025-07-06T11:14:38.000Z</time>
      </trkpt>
      <trkpt lat="48.68241" lon="2.00535">
        <ele>174</ele>
        <time>2025-07-06T11:14:59.000Z</time>
      </trkpt>
      <trkpt lat="48.68252" lon="2.00506">
        <ele>174</ele>
        <time>2025-07-06T11:15:15.000Z</time>
      </trkpt>
      <trkpt lat="48.68231" lon="2.00488">
        <ele>174</ele>
        <time>2025-07-06T11:15:48.000Z</time>
      </trkpt>
      <trkpt lat="48.68209" lon="2.00479">
        <ele>174</ele>
        <time>2025-07-06T11:16:07.000Z</time>
      </trkpt>
      <trkpt lat="48.68208" lon="2.00444">
        <ele>174</ele>
        <time>2025-07-06T11:16:29.000Z</time>
      </trkpt>
      <trkpt lat="48.68212" lon="2.00411">
        <ele>175</ele>
        <time>2025-07-06T11:16:49.000Z</time>
      </trkpt>
      <trkpt lat="48.68217" lon="2.00375">
        <ele>175</ele>
        <time>2025-07-06T11:17:08.000Z</time>
      </trkpt>
      <trkpt lat="48.68219" lon="2.0034">
        <ele>175</ele>
        <time>2025-07-06T11:17:26.000Z</time>
      </trkpt>
      <trkpt lat="48.68224" lon="2.00306">
        <ele>175</ele>
        <time>2025-07-06T11:17:45.000Z</time>
      </trkpt>
      <trkpt lat="48.6823" lon="2.00271">
        <ele>176</ele>
        <time>2025-07-06T11:18:02.000Z</time>
      </trkpt>
      <trkpt lat="48.68231" lon="2.00236">
        <ele>177</ele>
        <time>2025-07-06T11:18:19.000Z</time>
      </trkpt>
      <trkpt lat="48.68234" lon="2.00202">
        <ele>178</ele>
        <time>2025-07-06T11:18:38.000Z</time>
      </trkpt>
      <trkpt lat="48.68239" lon="2.00167">
        <ele>177</ele>
        <time>2025-07-06T11:18:57.000Z</time>
      </trkpt>
      <trkpt lat="48.68242" lon="2.00132">
        <ele>177</ele>
        <time>2025-07-06T11:19:18.000Z</time>
      </trkpt>
      <trkpt lat="48.68241" lon="2.00098">
        <ele>176</ele>
        <time>2025-07-06T11:19:40.000Z</time>
      </trkpt>
      <trkpt lat="48.68239" lon="2.00062">
        <ele>176</ele>
        <time>2025-07-06T11:20:01.000Z</time>
      </trkpt>
      <trkpt lat="48.68255" lon="2.00039">
        <ele>176</ele>
        <time>2025-07-06T11:20:26.000Z</time>
      </trkpt>
      <trkpt lat="48.6827" lon="2.00011">
        <ele>178</ele>
        <time>2025-07-06T11:20:43.000Z</time>
      </trkpt>
      <trkpt lat="48.68281" lon="1.9998">
        <ele>176</ele>
        <time>2025-07-06T11:21:03.000Z</time>
      </trkpt>
      <trkpt lat="48.68295" lon="1.9995">
        <ele>176</ele>
        <time>2025-07-06T11:21:22.000Z</time>
      </trkpt>
      <trkpt lat="48.68309" lon="1.99922">
        <ele>176</ele>
        <time>2025-07-06T11:21:41.000Z</time>
      </trkpt>
      <trkpt lat="48.68321" lon="1.99893">
        <ele>177</ele>
        <time>2025-07-06T11:21:58.000Z</time>
      </trkpt>
      <trkpt lat="48.68331" lon="1.99862">
        <ele>177</ele>
        <time>2025-07-06T11:22:18.000Z</time>
      </trkpt>
      <trkpt lat="48.68342" lon="1.9983">
        <ele>177</ele>
        <time>2025-07-06T11:22:39.000Z</time>
      </trkpt>
      <trkpt lat="48.68355" lon="1.99797">
        <ele>176</ele>
        <time>2025-07-06T11:22:59.000Z</time>
      </trkpt>
      <trkpt lat="48.68367" lon="1.99769">
        <ele>179</ele>
        <time>2025-07-06T11:23:16.000Z</time>
      </trkpt>
      <trkpt lat="48.68375" lon="1.99736">
        <ele>179</ele>
        <time>2025-07-06T11:23:36.000Z</time>
      </trkpt>
      <trkpt lat="48.68385" lon="1.99702">
        <ele>178</ele>
        <time>2025-07-06T11:23:57.000Z</time>
      </trkpt>
      <trkpt lat="48.68399" lon="1.99675">
        <ele>178</ele>
        <time>2025-07-06T11:24:13.000Z</time>
      </trkpt>
      <trkpt lat="48.6841" lon="1.99646">
        <ele>182</ele>
        <time>2025-07-06T11:24:31.000Z</time>
      </trkpt>
      <trkpt lat="48.68421" lon="1.99614">
        <ele>180</ele>
        <time>2025-07-06T11:24:50.000Z</time>
      </trkpt>
      <trkpt lat="48.68432" lon="1.99584">
        <ele>180</ele>
        <time>2025-07-06T11:25:08.000Z</time>
      </trkpt>
      <trkpt lat="48.68442" lon="1.99552">
        <ele>180</ele>
        <time>2025-07-06T11:25:36.000Z</time>
      </trkpt>
      <trkpt lat="48.68454" lon="1.99522">
        <ele>180</ele>
        <time>2025-07-06T11:25:54.000Z</time>
      </trkpt>
      <trkpt lat="48.68464" lon="1.99491">
        <ele>176</ele>
        <time>2025-07-06T11:26:11.000Z</time>
      </trkpt>
      <trkpt lat="48.68475" lon="1.9946">
        <ele>178</ele>
        <time>2025-07-06T11:26:28.000Z</time>
      </trkpt>
      <trkpt lat="48.68486" lon="1.9943">
        <ele>179</ele>
        <time>2025-07-06T11:26:45.000Z</time>
      </trkpt>
      <trkpt lat="48.68496" lon="1.99399">
        <ele>180</ele>
        <time>2025-07-06T11:27:04.000Z</time>
      </trkpt>
      <trkpt lat="48.68506" lon="1.99368">
        <ele>179</ele>
        <time>2025-07-06T11:27:22.000Z</time>
      </trkpt>
      <trkpt lat="48.68515" lon="1.99337">
        <ele>179</ele>
        <time>2025-07-06T11:27:40.000Z</time>
      </trkpt>
      <trkpt lat="48.68526" lon="1.99305">
        <ele>178</ele>
        <time>2025-07-06T11:27:59.000Z</time>
      </trkpt>
      <trkpt lat="48.68538" lon="1.99275">
        <ele>178</ele>
        <time>2025-07-06T11:28:18.000Z</time>
      </trkpt>
      <trkpt lat="48.68549" lon="1.99245">
        <ele>176</ele>
        <time>2025-07-06T11:28:37.000Z</time>
      </trkpt>
      <trkpt lat="48.68561" lon="1.99214">
        <ele>179</ele>
        <time>2025-07-06T11:28:57.000Z</time>
      </trkpt>
      <trkpt lat="48.68558" lon="1.99179">
        <ele>176</ele>
        <time>2025-07-06T11:29:19.000Z</time>
      </trkpt>
      <trkpt lat="48.68542" lon="1.99154">
        <ele>178</ele>
        <time>2025-07-06T11:29:36.000Z</time>
      </trkpt>
      <trkpt lat="48.68521" lon="1.99139">
        <ele>178</ele>
        <time>2025-07-06T11:29:54.000Z</time>
      </trkpt>
      <trkpt lat="48.685" lon="1.99121">
        <ele>177</ele>
        <time>2025-07-06T11:30:12.000Z</time>
      </trkpt>
      <trkpt lat="48.68488" lon="1.99123">
        <ele>175</ele>
        <time>2025-07-06T12:39:53.000Z</time>
      </trkpt>
      <trkpt lat="48.68502" lon="1.99096">
        <ele>175</ele>
        <time>2025-07-06T12:40:11.000Z</time>
      </trkpt>
      <trkpt lat="48.68515" lon="1.99068">
        <ele>174</ele>
        <time>2025-07-06T12:40:30.000Z</time>
      </trkpt>
      <trkpt lat="48.68522" lon="1.99029">
        <ele>172</ele>
        <time>2025-07-06T12:40:54.000Z</time>
      </trkpt>
      <trkpt lat="48.6853" lon="1.98997">
        <ele>173</ele>
        <time>2025-07-06T12:41:11.000Z</time>
      </trkpt>
      <trkpt lat="48.68539" lon="1.98964">
        <ele>170</ele>
        <time>2025-07-06T12:41:27.000Z</time>
      </trkpt>
      <trkpt lat="48.68544" lon="1.9893">
        <ele>171</ele>
        <time>2025-07-06T12:41:46.000Z</time>
      </trkpt>
      <trkpt lat="48.68546" lon="1.98895">
        <ele>170</ele>
        <time>2025-07-06T12:42:11.000Z</time>
      </trkpt>
      <trkpt lat="48.68547" lon="1.98859">
        <ele>171</ele>
        <time>2025-07-06T12:42:30.000Z</time>
      </trkpt>
      <trkpt lat="48.68564" lon="1.98836">
        <ele>168</ele>
        <time>2025-07-06T12:42:50.000Z</time>
      </trkpt>
      <trkpt lat="48.68583" lon="1.98816">
        <ele>166</ele>
        <time>2025-07-06T12:43:09.000Z</time>
      </trkpt>
      <trkpt lat="48.68591" lon="1.98782">
        <ele>163</ele>
        <time>2025-07-06T12:43:32.000Z</time>
      </trkpt>
      <trkpt lat="48.68611" lon="1.98765">
        <ele>157</ele>
        <time>2025-07-06T12:43:55.000Z</time>
      </trkpt>
      <trkpt lat="48.68631" lon="1.98748">
        <ele>155</ele>
        <time>2025-07-06T12:44:14.000Z</time>
      </trkpt>
      <trkpt lat="48.6865" lon="1.98729">
        <ele>147</ele>
        <time>2025-07-06T12:44:38.000Z</time>
      </trkpt>
      <trkpt lat="48.68673" lon="1.9871">
        <ele>145</ele>
        <time>2025-07-06T12:45:06.000Z</time>
      </trkpt>
      <trkpt lat="48.68696" lon="1.98715">
        <ele>146</ele>
        <time>2025-07-06T12:45:27.000Z</time>
      </trkpt>
      <trkpt lat="48.6871" lon="1.98685">
        <ele>147</ele>
        <time>2025-07-06T12:45:48.000Z</time>
      </trkpt>
      <trkpt lat="48.6873" lon="1.98665">
        <ele>143</ele>
        <time>2025-07-06T12:46:05.000Z</time>
      </trkpt>
      <trkpt lat="48.68748" lon="1.98646">
        <ele>146</ele>
        <time>2025-07-06T12:46:23.000Z</time>
      </trkpt>
      <trkpt lat="48.68767" lon="1.98625">
        <ele>148</ele>
        <time>2025-07-06T12:46:46.000Z</time>
      </trkpt>
      <trkpt lat="48.68787" lon="1.98606">
        <ele>146</ele>
        <time>2025-07-06T12:47:09.000Z</time>
      </trkpt>
      <trkpt lat="48.68809" lon="1.98592">
        <ele>150</ele>
        <time>2025-07-06T12:47:28.000Z</time>
      </trkpt>
      <trkpt lat="48.68831" lon="1.98589">
        <ele>149</ele>
        <time>2025-07-06T12:47:51.000Z</time>
      </trkpt>
      <trkpt lat="48.68855" lon="1.98596">
        <ele>151</ele>
        <time>2025-07-06T12:48:10.000Z</time>
      </trkpt>
      <trkpt lat="48.68877" lon="1.98617">
        <ele>152</ele>
        <time>2025-07-06T12:48:39.000Z</time>
      </trkpt>
      <trkpt lat="48.68893" lon="1.98643">
        <ele>158</ele>
        <time>2025-07-06T12:48:57.000Z</time>
      </trkpt>
      <trkpt lat="48.68906" lon="1.98671">
        <ele>163</ele>
        <time>2025-07-06T12:49:19.000Z</time>
      </trkpt>
      <trkpt lat="48.68919" lon="1.98699">
        <ele>164</ele>
        <time>2025-07-06T12:49:41.000Z</time>
      </trkpt>
      <trkpt lat="48.68927" lon="1.98731">
        <ele>167</ele>
        <time>2025-07-06T12:50:06.000Z</time>
      </trkpt>
      <trkpt lat="48.68932" lon="1.98768">
        <ele>166</ele>
        <time>2025-07-06T12:50:27.000Z</time>
      </trkpt>
      <trkpt lat="48.68941" lon="1.98804">
        <ele>167</ele>
        <time>2025-07-06T12:50:49.000Z</time>
      </trkpt>
      <trkpt lat="48.68957" lon="1.98828">
        <ele>169</ele>
        <time>2025-07-06T12:51:10.000Z</time>
      </trkpt>
      <trkpt lat="48.68979" lon="1.98839">
        <ele>169</ele>
        <time>2025-07-06T12:51:30.000Z</time>
      </trkpt>
      <trkpt lat="48.69003" lon="1.98845">
        <ele>166</ele>
        <time>2025-07-06T12:51:55.000Z</time>
      </trkpt>
      <trkpt lat="48.69027" lon="1.98844">
        <ele>164</ele>
        <time>2025-07-06T12:52:12.000Z</time>
      </trkpt>
      <trkpt lat="48.69051" lon="1.98851">
        <ele>164</ele>
        <time>2025-07-06T12:52:29.000Z</time>
      </trkpt>
      <trkpt lat="48.69055" lon="1.98816">
        <ele>158</ele>
        <time>2025-07-06T12:53:02.000Z</time>
      </trkpt>
      <trkpt lat="48.6906" lon="1.98782">
        <ele>151</ele>
        <time>2025-07-06T12:53:24.000Z</time>
      </trkpt>
      <trkpt lat="48.69079" lon="1.98763">
        <ele>149</ele>
        <time>2025-07-06T12:53:49.000Z</time>
      </trkpt>
      <trkpt lat="48.69098" lon="1.98744">
        <ele>147</ele>
        <time>2025-07-06T12:54:11.000Z</time>
      </trkpt>
      <trkpt lat="48.69109" lon="1.98713">
        <ele>141</ele>
        <time>2025-07-06T12:54:35.000Z</time>
      </trkpt>
      <trkpt lat="48.6913" lon="1.98695">
        <ele>139</ele>
        <time>2025-07-06T12:54:54.000Z</time>
      </trkpt>
      <trkpt lat="48.69157" lon="1.98683">
        <ele>138</ele>
        <time>2025-07-06T12:55:25.000Z</time>
      </trkpt>
      <trkpt lat="48.69178" lon="1.98674">
        <ele>136</ele>
        <time>2025-07-06T12:55:47.000Z</time>
      </trkpt>
      <trkpt lat="48.69202" lon="1.98668">
        <ele>134</ele>
        <time>2025-07-06T12:56:04.000Z</time>
      </trkpt>
      <trkpt lat="48.69226" lon="1.98662">
        <ele>129</ele>
        <time>2025-07-06T12:56:26.000Z</time>
      </trkpt>
      <trkpt lat="48.69245" lon="1.98641">
        <ele>127</ele>
        <time>2025-07-06T12:56:54.000Z</time>
      </trkpt>
      <trkpt lat="48.69251" lon="1.98608">
        <ele>118</ele>
        <time>2025-07-06T12:57:17.000Z</time>
      </trkpt>
      <trkpt lat="48.69264" lon="1.98579">
        <ele>116</ele>
        <time>2025-07-06T12:57:39.000Z</time>
      </trkpt>
      <trkpt lat="48.69279" lon="1.9855">
        <ele>111</ele>
        <time>2025-07-06T12:58:05.000Z</time>
      </trkpt>
      <trkpt lat="48.69285" lon="1.98517">
        <ele>109</ele>
        <time>2025-07-06T12:58:28.000Z</time>
      </trkpt>
      <trkpt lat="48.69278" lon="1.98483">
        <ele>105</ele>
        <time>2025-07-06T12:59:01.000Z</time>
      </trkpt>
      <trkpt lat="48.69301" lon="1.98475">
        <ele>104</ele>
        <time>2025-07-06T12:59:40.000Z</time>
      </trkpt>
      <trkpt lat="48.69323" lon="1.98482">
        <ele>103</ele>
        <time>2025-07-06T13:00:03.000Z</time>
      </trkpt>
      <trkpt lat="48.69344" lon="1.98493">
        <ele>101</ele>
        <time>2025-07-06T13:00:20.000Z</time>
      </trkpt>
      <trkpt lat="48.69367" lon="1.98495">
        <ele>101</ele>
        <time>2025-07-06T13:00:40.000Z</time>
      </trkpt>
      <trkpt lat="48.69391" lon="1.98493">
        <ele>100</ele>
        <time>2025-07-06T13:00:59.000Z</time>
      </trkpt>
      <trkpt lat="48.69413" lon="1.98478">
        <ele>99</ele>
        <time>2025-07-06T13:01:19.000Z</time>
      </trkpt>
      <trkpt lat="48.6943" lon="1.98454">
        <ele>95</ele>
        <time>2025-07-06T13:01:36.000Z</time>
      </trkpt>
      <trkpt lat="48.69443" lon="1.98426">
        <ele>95</ele>
        <time>2025-07-06T13:01:54.000Z</time>
      </trkpt>
      <trkpt lat="48.6946" lon="1.98402">
        <ele>94</ele>
        <time>2025-07-06T13:02:12.000Z</time>
      </trkpt>
      <trkpt lat="48.69474" lon="1.98374">
        <ele>93</ele>
        <time>2025-07-06T13:02:30.000Z</time>
      </trkpt>
      <trkpt lat="48.69488" lon="1.98347">
        <ele>90</ele>
        <time>2025-07-06T13:02:50.000Z</time>
      </trkpt>
      <trkpt lat="48.69506" lon="1.98323">
        <ele>90</ele>
        <time>2025-07-06T13:03:11.000Z</time>
      </trkpt>
      <trkpt lat="48.69527" lon="1.98309">
        <ele>91</ele>
        <time>2025-07-06T13:03:31.000Z</time>
      </trkpt>
      <trkpt lat="48.6955" lon="1.98307">
        <ele>92</ele>
        <time>2025-07-06T13:03:51.000Z</time>
      </trkpt>
      <trkpt lat="48.69572" lon="1.98296">
        <ele>92</ele>
        <time>2025-07-06T13:04:10.000Z</time>
      </trkpt>
      <trkpt lat="48.69593" lon="1.98279">
        <ele>92</ele>
        <time>2025-07-06T13:04:27.000Z</time>
      </trkpt>
      <trkpt lat="48.6961" lon="1.98257">
        <ele>95</ele>
        <time>2025-07-06T13:04:46.000Z</time>
      </trkpt>
      <trkpt lat="48.69628" lon="1.98233">
        <ele>94</ele>
        <time>2025-07-06T13:05:05.000Z</time>
      </trkpt>
      <trkpt lat="48.69643" lon="1.98206">
        <ele>95</ele>
        <time>2025-07-06T13:05:25.000Z</time>
      </trkpt>
      <trkpt lat="48.69658" lon="1.98176">
        <ele>97</ele>
        <time>2025-07-06T13:05:47.000Z</time>
      </trkpt>
      <trkpt lat="48.69671" lon="1.98147">
        <ele>98</ele>
        <time>2025-07-06T13:06:07.000Z</time>
      </trkpt>
      <trkpt lat="48.69683" lon="1.98116">
        <ele>102</ele>
        <time>2025-07-06T13:06:27.000Z</time>
      </trkpt>
      <trkpt lat="48.69695" lon="1.98085">
        <ele>103</ele>
        <time>2025-07-06T13:06:48.000Z</time>
      </trkpt>
      <trkpt lat="48.69706" lon="1.98055">
        <ele>105</ele>
        <time>2025-07-06T13:07:06.000Z</time>
      </trkpt>
      <trkpt lat="48.69713" lon="1.98021">
        <ele>105</ele>
        <time>2025-07-06T13:07:25.000Z</time>
      </trkpt>
      <trkpt lat="48.69725" lon="1.9799">
        <ele>106</ele>
        <time>2025-07-06T13:07:43.000Z</time>
      </trkpt>
      <trkpt lat="48.69734" lon="1.97955">
        <ele>109</ele>
        <time>2025-07-06T13:08:05.000Z</time>
      </trkpt>
      <trkpt lat="48.69742" lon="1.97922">
        <ele>108</ele>
        <time>2025-07-06T13:08:27.000Z</time>
      </trkpt>
      <trkpt lat="48.69749" lon="1.97889">
        <ele>107</ele>
        <time>2025-07-06T13:08:45.000Z</time>
      </trkpt>
      <trkpt lat="48.69771" lon="1.97882">
        <ele>105</ele>
        <time>2025-07-06T13:09:13.000Z</time>
      </trkpt>
      <trkpt lat="48.69792" lon="1.97896">
        <ele>106</ele>
        <time>2025-07-06T13:09:30.000Z</time>
      </trkpt>
      <trkpt lat="48.69814" lon="1.97891">
        <ele>107</ele>
        <time>2025-07-06T13:09:52.000Z</time>
      </trkpt>
      <trkpt lat="48.69837" lon="1.97897">
        <ele>109</ele>
        <time>2025-07-06T13:10:10.000Z</time>
      </trkpt>
      <trkpt lat="48.69849" lon="1.97927">
        <ele>108</ele>
        <time>2025-07-06T13:10:31.000Z</time>
      </trkpt>
      <trkpt lat="48.69872" lon="1.97934">
        <ele>104</ele>
        <time>2025-07-06T13:10:52.000Z</time>
      </trkpt>
      <trkpt lat="48.69893" lon="1.97949">
        <ele>105</ele>
        <time>2025-07-06T13:11:13.000Z</time>
      </trkpt>
      <trkpt lat="48.69914" lon="1.97964">
        <ele>105</ele>
        <time>2025-07-06T13:11:30.000Z</time>
      </trkpt>
      <trkpt lat="48.69936" lon="1.97976">
        <ele>104</ele>
        <time>2025-07-06T13:11:50.000Z</time>
      </trkpt>
      <trkpt lat="48.69942" lon="1.97978">
        <ele>105</ele>
        <time>2025-07-06T13:11:56.000Z</time>
      </trkpt>
      <trkpt lat="48.69958" lon="1.97987">
        <ele>102</ele>
        <time>2025-07-06T13:12:12.000Z</time>
      </trkpt>
      <trkpt lat="48.69979" lon="1.98003">
        <ele>101</ele>
        <time>2025-07-06T13:12:31.000Z</time>
      </trkpt>
      <trkpt lat="48.7" lon="1.98019">
        <ele>100</ele>
        <time>2025-07-06T13:12:49.000Z</time>
      </trkpt>
      <trkpt lat="48.7002" lon="1.98036">
        <ele>97</ele>
        <time>2025-07-06T13:13:11.000Z</time>
      </trkpt>
      <trkpt lat="48.70043" lon="1.98046">
        <ele>96</ele>
        <time>2025-07-06T13:13:31.000Z</time>
      </trkpt>
      <trkpt lat="48.70063" lon="1.98064">
        <ele>98</ele>
        <time>2025-07-06T13:13:51.000Z</time>
      </trkpt>
      <trkpt lat="48.70085" lon="1.98075">
        <ele>95</ele>
        <time>2025-07-06T13:14:12.000Z</time>
      </trkpt>
      <trkpt lat="48.70106" lon="1.98089">
        <ele>93</ele>
        <time>2025-07-06T13:14:31.000Z</time>
      </trkpt>
      <trkpt lat="48.70127" lon="1.98107">
        <ele>94</ele>
        <time>2025-07-06T13:14:51.000Z</time>
      </trkpt>
      <trkpt lat="48.70148" lon="1.98123">
        <ele>95</ele>
        <time>2025-07-06T13:15:11.000Z</time>
      </trkpt>
      <trkpt lat="48.7017" lon="1.98135">
        <ele>96</ele>
        <time>2025-07-06T13:15:30.000Z</time>
      </trkpt>
      <trkpt lat="48.70189" lon="1.98152">
        <ele>97</ele>
        <time>2025-07-06T13:15:50.000Z</time>
      </trkpt>
      <trkpt lat="48.70203" lon="1.98181">
        <ele>97</ele>
        <time>2025-07-06T13:16:07.000Z</time>
      </trkpt>
      <trkpt lat="48.7022" lon="1.98204">
        <ele>96</ele>
        <time>2025-07-06T13:16:27.000Z</time>
      </trkpt>
      <trkpt lat="48.70235" lon="1.9823">
        <ele>97</ele>
        <time>2025-07-06T13:16:47.000Z</time>
      </trkpt>
      <trkpt lat="48.70252" lon="1.98256">
        <ele>97</ele>
        <time>2025-07-06T13:17:05.000Z</time>
      </trkpt>
      <trkpt lat="48.70268" lon="1.9828">
        <ele>97</ele>
        <time>2025-07-06T13:17:23.000Z</time>
      </trkpt>
      <trkpt lat="48.70269" lon="1.98284">
        <ele>97</ele>
        <time>2025-07-06T13:17:25.000Z</time>
      </trkpt>
      <trkpt lat="48.70283" lon="1.98308">
        <ele>95</ele>
        <time>2025-07-06T13:17:45.000Z</time>
      </trkpt>
      <trkpt lat="48.70297" lon="1.98337">
        <ele>95</ele>
        <time>2025-07-06T13:18:01.000Z</time>
      </trkpt>
      <trkpt lat="48.70314" lon="1.98361">
        <ele>94</ele>
        <time>2025-07-06T13:18:20.000Z</time>
      </trkpt>
      <trkpt lat="48.70331" lon="1.98385">
        <ele>95</ele>
        <time>2025-07-06T13:18:37.000Z</time>
      </trkpt>
      <trkpt lat="48.70348" lon="1.98408">
        <ele>94</ele>
        <time>2025-07-06T13:18:55.000Z</time>
      </trkpt>
      <trkpt lat="48.70367" lon="1.98427">
        <ele>95</ele>
        <time>2025-07-06T13:19:14.000Z</time>
      </trkpt>
      <trkpt lat="48.70388" lon="1.98439">
        <ele>93</ele>
        <time>2025-07-06T13:19:33.000Z</time>
      </trkpt>
      <trkpt lat="48.70408" lon="1.98456">
        <ele>96</ele>
        <time>2025-07-06T13:19:50.000Z</time>
      </trkpt>
      <trkpt lat="48.70424" lon="1.9848">
        <ele>94</ele>
        <time>2025-07-06T13:20:08.000Z</time>
      </trkpt>
      <trkpt lat="48.70438" lon="1.98508">
        <ele>95</ele>
        <time>2025-07-06T13:20:32.000Z</time>
      </trkpt>
      <trkpt lat="48.70452" lon="1.98536">
        <ele>97</ele>
        <time>2025-07-06T13:20:55.000Z</time>
      </trkpt>
      <trkpt lat="48.70463" lon="1.98566">
        <ele>97</ele>
        <time>2025-07-06T13:21:15.000Z</time>
      </trkpt>
      <trkpt lat="48.70484" lon="1.98583">
        <ele>98</ele>
        <time>2025-07-06T13:21:37.000Z</time>
      </trkpt>
      <trkpt lat="48.70503" lon="1.986">
        <ele>99</ele>
        <time>2025-07-06T13:22:00.000Z</time>
      </trkpt>
      <trkpt lat="48.70525" lon="1.98609">
        <ele>99</ele>
        <time>2025-07-06T13:22:21.000Z</time>
      </trkpt>
      <trkpt lat="48.70548" lon="1.98619">
        <ele>100</ele>
        <time>2025-07-06T13:22:42.000Z</time>
      </trkpt>
      <trkpt lat="48.70565" lon="1.98642">
        <ele>99</ele>
        <time>2025-07-06T13:23:03.000Z</time>
      </trkpt>
      <trkpt lat="48.70574" lon="1.98674">
        <ele>97</ele>
        <time>2025-07-06T13:25:18.000Z</time>
      </trkpt>
      <trkpt lat="48.70585" lon="1.98704">
        <ele>95</ele>
        <time>2025-07-06T13:26:01.000Z</time>
      </trkpt>
      <trkpt lat="48.70602" lon="1.98728">
        <ele>96</ele>
        <time>2025-07-06T13:26:18.000Z</time>
      </trkpt>
      <trkpt lat="48.70618" lon="1.98753">
        <ele>96</ele>
        <time>2025-07-06T13:26:38.000Z</time>
      </trkpt>
      <trkpt lat="48.70634" lon="1.98777">
        <ele>97</ele>
        <time>2025-07-06T13:26:59.000Z</time>
      </trkpt>
      <trkpt lat="48.70656" lon="1.98764">
        <ele>98</ele>
        <time>2025-07-06T13:27:29.000Z</time>
      </trkpt>
      <trkpt lat="48.70679" lon="1.98753">
        <ele>102</ele>
        <time>2025-07-06T13:27:49.000Z</time>
      </trkpt>
      <trkpt lat="48.70701" lon="1.98743">
        <ele>104</ele>
        <time>2025-07-06T13:28:08.000Z</time>
      </trkpt>
      <trkpt lat="48.70724" lon="1.9874">
        <ele>105</ele>
        <time>2025-07-06T13:28:25.000Z</time>
      </trkpt>
      <trkpt lat="48.70745" lon="1.98726">
        <ele>106</ele>
        <time>2025-07-06T13:28:44.000Z</time>
      </trkpt>
      <trkpt lat="48.70763" lon="1.98706">
        <ele>109</ele>
        <time>2025-07-06T13:29:03.000Z</time>
      </trkpt>
      <trkpt lat="48.70777" lon="1.98679">
        <ele>110</ele>
        <time>2025-07-06T13:29:21.000Z</time>
      </trkpt>
      <trkpt lat="48.70792" lon="1.98652">
        <ele>111</ele>
        <time>2025-07-06T13:29:39.000Z</time>
      </trkpt>
      <trkpt lat="48.70808" lon="1.98624">
        <ele>112</ele>
        <time>2025-07-06T13:30:09.000Z</time>
      </trkpt>
      <trkpt lat="48.70818" lon="1.98593">
        <ele>111</ele>
        <time>2025-07-06T13:30:29.000Z</time>
      </trkpt>
      <trkpt lat="48.7083" lon="1.98563">
        <ele>113</ele>
        <time>2025-07-06T13:31:42.000Z</time>
      </trkpt>
      <trkpt lat="48.70849" lon="1.98546">
        <ele>111</ele>
        <time>2025-07-06T13:32:27.000Z</time>
      </trkpt>
      <trkpt lat="48.70872" lon="1.98546">
        <ele>109</ele>
        <time>2025-07-06T13:32:50.000Z</time>
      </trkpt>
      <trkpt lat="48.70894" lon="1.98547">
        <ele>107</ele>
        <time>2025-07-06T13:33:08.000Z</time>
      </trkpt>
      <trkpt lat="48.70916" lon="1.98558">
        <ele>104</ele>
        <time>2025-07-06T13:33:27.000Z</time>
      </trkpt>
      <trkpt lat="48.70937" lon="1.9857">
        <ele>103</ele>
        <time>2025-07-06T13:33:45.000Z</time>
      </trkpt>
      <trkpt lat="48.70958" lon="1.98586">
        <ele>100</ele>
        <time>2025-07-06T13:34:19.000Z</time>
      </trkpt>
      <trkpt lat="48.7098" lon="1.98598">
        <ele>99</ele>
        <time>2025-07-06T13:34:36.000Z</time>
      </trkpt>
      <trkpt lat="48.71003" lon="1.98595">
        <ele>98</ele>
        <time>2025-07-06T13:34:54.000Z</time>
      </trkpt>
      <trkpt lat="48.71025" lon="1.98586">
        <ele>97</ele>
        <time>2025-07-06T13:35:15.000Z</time>
      </trkpt>
      <trkpt lat="48.71047" lon="1.98582">
        <ele>96</ele>
        <time>2025-07-06T13:35:34.000Z</time>
      </trkpt>
      <trkpt lat="48.7107" lon="1.98584">
        <ele>95</ele>
        <time>2025-07-06T13:35:53.000Z</time>
      </trkpt>
      <trkpt lat="48.71093" lon="1.98585">
        <ele>94</ele>
        <time>2025-07-06T13:36:14.000Z</time>
      </trkpt>
      <trkpt lat="48.71115" lon="1.98586">
        <ele>95</ele>
        <time>2025-07-06T13:36:30.000Z</time>
      </trkpt>
      <trkpt lat="48.71138" lon="1.98589">
        <ele>93</ele>
        <time>2025-07-06T13:36:49.000Z</time>
      </trkpt>
      <trkpt lat="48.71161" lon="1.98592">
        <ele>93</ele>
        <time>2025-07-06T13:37:10.000Z</time>
      </trkpt>
      <trkpt lat="48.71183" lon="1.98597">
        <ele>92</ele>
        <time>2025-07-06T13:37:28.000Z</time>
      </trkpt>
      <trkpt lat="48.71204" lon="1.98578">
        <ele>93</ele>
        <time>2025-07-06T13:37:49.000Z</time>
      </trkpt>
      <trkpt lat="48.71225" lon="1.98563">
        <ele>93</ele>
        <time>2025-07-06T13:38:08.000Z</time>
      </trkpt>
      <trkpt lat="48.71242" lon="1.98539">
        <ele>93</ele>
        <time>2025-07-06T13:38:26.000Z</time>
      </trkpt>
      <trkpt lat="48.71259" lon="1.98514">
        <ele>95</ele>
        <time>2025-07-06T13:38:44.000Z</time>
      </trkpt>
      <trkpt lat="48.71282" lon="1.98508">
        <ele>96</ele>
        <time>2025-07-06T13:39:03.000Z</time>
      </trkpt>
      <trkpt lat="48.71306" lon="1.98508">
        <ele>96</ele>
        <time>2025-07-06T13:39:32.000Z</time>
      </trkpt>
      <trkpt lat="48.71332" lon="1.9853">
        <ele>99</ele>
        <time>2025-07-06T13:40:37.000Z</time>
      </trkpt>
      <trkpt lat="48.71264" lon="1.98743">
        <ele>104</ele>
        <time>2025-07-06T13:44:28.000Z</time>
      </trkpt>
      <trkpt lat="48.71169" lon="1.9892">
        <ele>105</ele>
        <time>2025-07-06T13:46:46.000Z</time>
      </trkpt>
      <trkpt lat="48.71258" lon="1.98935">
        <ele>127</ele>
        <time>2025-07-06T13:47:03.000Z</time>
      </trkpt>
      <trkpt lat="48.71269" lon="1.98987">
        <ele>135</ele>
        <time>2025-07-06T13:47:25.000Z</time>
      </trkpt>
      <trkpt lat="48.71245" lon="1.99066">
        <ele>137</ele>
        <time>2025-07-06T13:47:47.000Z</time>
      </trkpt>
      <trkpt lat="48.7126" lon="1.99132">
        <ele>144</ele>
        <time>2025-07-06T13:48:14.000Z</time>
      </trkpt>
      <trkpt lat="48.71275" lon="1.99198">
        <ele>158</ele>
        <time>2025-07-06T13:48:40.000Z</time>
      </trkpt>
      <trkpt lat="48.71266" lon="1.99287">
        <ele>160</ele>
        <time>2025-07-06T13:49:05.000Z</time>
      </trkpt>
      <trkpt lat="48.71296" lon="1.99326">
        <ele>164</ele>
        <time>2025-07-06T13:49:28.000Z</time>
      </trkpt>
      <trkpt lat="48.71433" lon="1.99422">
        <ele>165</ele>
        <time>2025-07-06T13:49:53.000Z</time>
      </trkpt>
      <trkpt lat="48.71243" lon="1.99546">
        <ele>166</ele>
        <time>2025-07-06T13:57:43.000Z</time>
      </trkpt>
      <trkpt lat="48.70989" lon="1.99896">
        <ele>163</ele>
        <time>2025-07-06T13:58:03.000Z</time>
      </trkpt>
      <trkpt lat="48.70881" lon="2.00103">
        <ele>162</ele>
        <time>2025-07-06T13:58:22.000Z</time>
      </trkpt>
      <trkpt lat="48.70889" lon="2.00147">
        <ele>162</ele>
        <time>2025-07-06T13:58:56.000Z</time>
      </trkpt>
      <trkpt lat="48.70956" lon="2.00168">
        <ele>164</ele>
        <time>2025-07-06T13:58:39.000Z</time>
      </trkpt>
      <trkpt lat="48.70879" lon="2.00394">
        <ele>163</ele>
        <time>2025-07-06T13:58:58.000Z</time>
      </trkpt>
      <trkpt lat="48.70907" lon="2.00586">
        <ele>166</ele>
        <time>2025-07-06T13:59:16.000Z</time>
      </trkpt>
      <trkpt lat="48.7094" lon="2.00677">
        <ele>166</ele>
        <time>2025-07-06T14:00:34.000Z</time>
      </trkpt>
      <trkpt lat="48.71006" lon="2.00727">
        <ele>168</ele>
        <time>2025-07-06T14:12:15.000Z</time>
      </trkpt>
      <trkpt lat="48.70992" lon="2.00755">
        <ele>167</ele>
        <time>2025-07-06T14:12:36.000Z</time>
      </trkpt>
      <trkpt lat="48.70981" lon="2.00784">
        <ele>168</ele>
        <time>2025-07-06T14:12:56.000Z</time>
      </trkpt>
      <trkpt lat="48.7097" lon="2.00815">
        <ele>169</ele>
        <time>2025-07-06T14:13:11.000Z</time>
      </trkpt>
      <trkpt lat="48.70961" lon="2.00846">
        <ele>168</ele>
        <time>2025-07-06T14:13:32.000Z</time>
      </trkpt>
      <trkpt lat="48.70953" lon="2.00881">
        <ele>168</ele>
        <time>2025-07-06T14:13:53.000Z</time>
      </trkpt>
      <trkpt lat="48.70942" lon="2.00913">
        <ele>169</ele>
        <time>2025-07-06T14:14:12.000Z</time>
      </trkpt>
      <trkpt lat="48.70935" lon="2.00946">
        <ele>166</ele>
        <time>2025-07-06T14:14:29.000Z</time>
      </trkpt>
      <trkpt lat="48.70928" lon="2.00982">
        <ele>167</ele>
        <time>2025-07-06T14:14:49.000Z</time>
      </trkpt>
      <trkpt lat="48.7092" lon="2.01014">
        <ele>167</ele>
        <time>2025-07-06T14:15:08.000Z</time>
      </trkpt>
      <trkpt lat="48.70912" lon="2.01049">
        <ele>167</ele>
        <time>2025-07-06T14:15:27.000Z</time>
      </trkpt>
      <trkpt lat="48.70899" lon="2.01078">
        <ele>168</ele>
        <time>2025-07-06T14:15:45.000Z</time>
      </trkpt>
      <trkpt lat="48.70892" lon="2.01111">
        <ele>168</ele>
        <time>2025-07-06T14:16:02.000Z</time>
      </trkpt>
      <trkpt lat="48.70883" lon="2.01143">
        <ele>165</ele>
        <time>2025-07-06T14:16:21.000Z</time>
      </trkpt>
      <trkpt lat="48.70872" lon="2.01175">
        <ele>168</ele>
        <time>2025-07-06T14:16:38.000Z</time>
      </trkpt>
      <trkpt lat="48.70864" lon="2.01209">
        <ele>167</ele>
        <time>2025-07-06T14:16:56.000Z</time>
      </trkpt>
      <trkpt lat="48.70856" lon="2.01241">
        <ele>169</ele>
        <time>2025-07-06T14:17:14.000Z</time>
      </trkpt>
      <trkpt lat="48.70847" lon="2.01272">
        <ele>164</ele>
        <time>2025-07-06T14:17:35.000Z</time>
      </trkpt>
      <trkpt lat="48.70841" lon="2.01306">
        <ele>165</ele>
        <time>2025-07-06T14:17:54.000Z</time>
      </trkpt>
      <trkpt lat="48.70832" lon="2.01338">
        <ele>166</ele>
        <time>2025-07-06T14:18:12.000Z</time>
      </trkpt>
      <trkpt lat="48.70825" lon="2.01373">
        <ele>166</ele>
        <time>2025-07-06T14:18:32.000Z</time>
      </trkpt>
      <trkpt lat="48.70817" lon="2.01405">
        <ele>164</ele>
        <time>2025-07-06T14:18:51.000Z</time>
      </trkpt>
      <trkpt lat="48.70812" lon="2.0144">
        <ele>166</ele>
        <time>2025-07-06T14:19:08.000Z</time>
      </trkpt>
      <trkpt lat="48.70808" lon="2.01474">
        <ele>167</ele>
        <time>2025-07-06T14:19:29.000Z</time>
      </trkpt>
      <trkpt lat="48.70798" lon="2.01505">
        <ele>166</ele>
        <time>2025-07-06T14:19:47.000Z</time>
      </trkpt>
      <trkpt lat="48.70789" lon="2.01537">
        <ele>166</ele>
        <time>2025-07-06T14:20:08.000Z</time>
      </trkpt>
      <trkpt lat="48.70783" lon="2.01571">
        <ele>165</ele>
        <time>2025-07-06T14:20:28.000Z</time>
      </trkpt>
      <trkpt lat="48.70772" lon="2.01603">
        <ele>164</ele>
        <time>2025-07-06T14:20:46.000Z</time>
      </trkpt>
      <trkpt lat="48.70767" lon="2.0164">
        <ele>165</ele>
        <time>2025-07-06T14:21:08.000Z</time>
      </trkpt>
      <trkpt lat="48.70757" lon="2.01671">
        <ele>164</ele>
        <time>2025-07-06T14:21:28.000Z</time>
      </trkpt>
      <trkpt lat="48.70747" lon="2.01704">
        <ele>165</ele>
        <time>2025-07-06T14:21:49.000Z</time>
      </trkpt>
      <trkpt lat="48.7074" lon="2.01736">
        <ele>164</ele>
        <time>2025-07-06T14:22:08.000Z</time>
      </trkpt>
      <trkpt lat="48.70737" lon="2.01772">
        <ele>165</ele>
        <time>2025-07-06T14:22:27.000Z</time>
      </trkpt>
      <trkpt lat="48.7073" lon="2.01808">
        <ele>164</ele>
        <time>2025-07-06T14:22:49.000Z</time>
      </trkpt>
      <trkpt lat="48.70722" lon="2.01842">
        <ele>165</ele>
        <time>2025-07-06T14:23:09.000Z</time>
      </trkpt>
      <trkpt lat="48.70713" lon="2.01874">
        <ele>162</ele>
        <time>2025-07-06T14:23:28.000Z</time>
      </trkpt>
      <trkpt lat="48.70705" lon="2.01909">
        <ele>163</ele>
        <time>2025-07-06T14:23:48.000Z</time>
      </trkpt>
      <trkpt lat="48.70699" lon="2.01941">
        <ele>162</ele>
        <time>2025-07-06T14:24:05.000Z</time>
      </trkpt>
      <trkpt lat="48.70698" lon="2.01975">
        <ele>162</ele>
        <time>2025-07-06T14:24:27.000Z</time>
      </trkpt>
      <trkpt lat="48.70699" lon="2.0201">
        <ele>162</ele>
        <time>2025-07-06T14:24:46.000Z</time>
      </trkpt>
      <trkpt lat="48.70702" lon="2.02045">
        <ele>163</ele>
        <time>2025-07-06T14:25:05.000Z</time>
      </trkpt>
      <trkpt lat="48.70702" lon="2.02081">
        <ele>162</ele>
        <time>2025-07-06T14:25:24.000Z</time>
      </trkpt>
      <trkpt lat="48.70707" lon="2.02115">
        <ele>163</ele>
        <time>2025-07-06T14:25:42.000Z</time>
      </trkpt>
      <trkpt lat="48.70704" lon="2.02149">
        <ele>162</ele>
        <time>2025-07-06T14:26:02.000Z</time>
      </trkpt>
      <trkpt lat="48.70708" lon="2.02184">
        <ele>163</ele>
        <time>2025-07-06T14:26:18.000Z</time>
      </trkpt>
      <trkpt lat="48.70711" lon="2.02219">
        <ele>164</ele>
        <time>2025-07-06T14:26:34.000Z</time>
      </trkpt>
      <trkpt lat="48.70699" lon="2.02249">
        <ele>161</ele>
        <time>2025-07-06T14:26:54.000Z</time>
      </trkpt>
      <trkpt lat="48.70701" lon="2.02284">
        <ele>161</ele>
        <time>2025-07-06T14:27:13.000Z</time>
      </trkpt>
      <trkpt lat="48.70693" lon="2.02318">
        <ele>161</ele>
        <time>2025-07-06T14:27:30.000Z</time>
      </trkpt>
      <trkpt lat="48.7069" lon="2.02353">
        <ele>160</ele>
        <time>2025-07-06T14:27:50.000Z</time>
      </trkpt>
      <trkpt lat="48.70684" lon="2.02386">
        <ele>159</ele>
        <time>2025-07-06T14:28:10.000Z</time>
      </trkpt>
      <trkpt lat="48.70687" lon="2.02422">
        <ele>159</ele>
        <time>2025-07-06T14:28:29.000Z</time>
      </trkpt>
      <trkpt lat="48.70683" lon="2.02457">
        <ele>160</ele>
        <time>2025-07-06T14:28:46.000Z</time>
      </trkpt>
      <trkpt lat="48.70692" lon="2.02491">
        <ele>159</ele>
        <time>2025-07-06T14:29:06.000Z</time>
      </trkpt>
      <trkpt lat="48.70701" lon="2.02525">
        <ele>158</ele>
        <time>2025-07-06T14:29:24.000Z</time>
      </trkpt>
      <trkpt lat="48.7071" lon="2.02556">
        <ele>157</ele>
        <time>2025-07-06T14:29:43.000Z</time>
      </trkpt>
      <trkpt lat="48.70721" lon="2.02588">
        <ele>156</ele>
        <time>2025-07-06T14:30:04.000Z</time>
      </trkpt>
      <trkpt lat="48.70721" lon="2.02624">
        <ele>155</ele>
        <time>2025-07-06T14:30:25.000Z</time>
      </trkpt>
      <trkpt lat="48.70724" lon="2.02659">
        <ele>151</ele>
        <time>2025-07-06T14:30:45.000Z</time>
      </trkpt>
      <trkpt lat="48.70724" lon="2.02693">
        <ele>147</ele>
        <time>2025-07-06T14:31:10.000Z</time>
      </trkpt>
      <trkpt lat="48.70726" lon="2.02728">
        <ele>147</ele>
        <time>2025-07-06T14:31:29.000Z</time>
      </trkpt>
      <trkpt lat="48.70732" lon="2.02762">
        <ele>143</ele>
        <time>2025-07-06T14:31:52.000Z</time>
      </trkpt>
      <trkpt lat="48.7074" lon="2.02796">
        <ele>140</ele>
        <time>2025-07-06T14:32:12.000Z</time>
      </trkpt>
      <trkpt lat="48.70754" lon="2.02823">
        <ele>137</ele>
        <time>2025-07-06T14:32:30.000Z</time>
      </trkpt>
      <trkpt lat="48.70759" lon="2.02856">
        <ele>134</ele>
        <time>2025-07-06T14:32:53.000Z</time>
      </trkpt>
      <trkpt lat="48.70768" lon="2.02887">
        <ele>131</ele>
        <time>2025-07-06T14:33:14.000Z</time>
      </trkpt>
      <trkpt lat="48.70779" lon="2.02918">
        <ele>127</ele>
        <time>2025-07-06T14:33:39.000Z</time>
      </trkpt>
      <trkpt lat="48.70789" lon="2.02951">
        <ele>121</ele>
        <time>2025-07-06T14:34:00.000Z</time>
      </trkpt>
      <trkpt lat="48.7079" lon="2.02987">
        <ele>113</ele>
        <time>2025-07-06T14:34:26.000Z</time>
      </trkpt>
      <trkpt lat="48.70777" lon="2.03019">
        <ele>112</ele>
        <time>2025-07-06T14:34:45.000Z</time>
      </trkpt>
      <trkpt lat="48.70771" lon="2.03052">
        <ele>110</ele>
        <time>2025-07-06T14:35:07.000Z</time>
      </trkpt>
      <trkpt lat="48.70758" lon="2.0308">
        <ele>105</ele>
        <time>2025-07-06T14:36:07.000Z</time>
      </trkpt>
      <trkpt lat="48.7074" lon="2.03107">
        <ele>104</ele>
        <time>2025-07-06T14:37:38.000Z</time>
      </trkpt>
      <trkpt lat="48.70759" lon="2.0309">
        <ele>105</ele>
        <time>2025-07-06T14:38:40.000Z</time>
      </trkpt>
      <trkpt lat="48.70742" lon="2.03111">
        <ele>101</ele>
        <time>2025-07-06T14:39:04.000Z</time>
      </trkpt>
      <trkpt lat="48.70745" lon="2.03141">
        <ele>107</ele>
        <time>2025-07-06T14:39:38.000Z</time>
      </trkpt>
      <trkpt lat="48.70751" lon="2.03149">
        <ele>107</ele>
        <time>2025-07-06T14:39:40.000Z</time>
      </trkpt>
      <trkpt lat="48.70765" lon="2.03175">
        <ele>102</ele>
        <time>2025-07-06T14:40:08.000Z</time>
      </trkpt>
      <trkpt lat="48.70779" lon="2.03202">
        <ele>100</ele>
        <time>2025-07-06T14:40:25.000Z</time>
      </trkpt>
      <trkpt lat="48.70793" lon="2.0323">
        <ele>99</ele>
        <time>2025-07-06T14:40:45.000Z</time>
      </trkpt>
      <trkpt lat="48.70807" lon="2.03257">
        <ele>98</ele>
        <time>2025-07-06T14:41:08.000Z</time>
      </trkpt>
      <trkpt lat="48.70802" lon="2.03291">
        <ele>96</ele>
        <time>2025-07-06T14:41:34.000Z</time>
      </trkpt>
      <trkpt lat="48.7078" lon="2.03301">
        <ele>96</ele>
        <time>2025-07-06T14:41:55.000Z</time>
      </trkpt>
      <trkpt lat="48.70759" lon="2.03316">
        <ele>95</ele>
        <time>2025-07-06T14:42:13.000Z</time>
      </trkpt>
      <trkpt lat="48.70738" lon="2.03332">
        <ele>93</ele>
        <time>2025-07-06T14:42:33.000Z</time>
      </trkpt>
      <trkpt lat="48.70717" lon="2.03346">
        <ele>90</ele>
        <time>2025-07-06T14:42:53.000Z</time>
      </trkpt>
      <trkpt lat="48.70724" lon="2.0338">
        <ele>92</ele>
        <time>2025-07-06T14:43:10.000Z</time>
      </trkpt>
      <trkpt lat="48.70739" lon="2.03405">
        <ele>90</ele>
        <time>2025-07-06T14:43:30.000Z</time>
      </trkpt>
      <trkpt lat="48.70752" lon="2.03434">
        <ele>89</ele>
        <time>2025-07-06T14:43:49.000Z</time>
      </trkpt>
      <trkpt lat="48.70765" lon="2.03464">
        <ele>90</ele>
        <time>2025-07-06T14:44:08.000Z</time>
      </trkpt>
      <trkpt lat="48.70778" lon="2.03492">
        <ele>91</ele>
        <time>2025-07-06T14:44:27.000Z</time>
      </trkpt>
      <trkpt lat="48.7079" lon="2.03522">
        <ele>90</ele>
        <time>2025-07-06T14:44:55.000Z</time>
      </trkpt>
      <trkpt lat="48.70804" lon="2.03551">
        <ele>90</ele>
        <time>2025-07-06T14:45:13.000Z</time>
      </trkpt>
      <trkpt lat="48.7081" lon="2.03584">
        <ele>89</ele>
        <time>2025-07-06T14:45:32.000Z</time>
      </trkpt>
      <trkpt lat="48.70815" lon="2.03618">
        <ele>90</ele>
        <time>2025-07-06T14:45:49.000Z</time>
      </trkpt>
      <trkpt lat="48.70831" lon="2.03641">
        <ele>87</ele>
        <time>2025-07-06T14:46:06.000Z</time>
      </trkpt>
      <trkpt lat="48.70847" lon="2.03668">
        <ele>86</ele>
        <time>2025-07-06T14:46:22.000Z</time>
      </trkpt>
      <trkpt lat="48.70869" lon="2.03676">
        <ele>83</ele>
        <time>2025-07-06T14:46:50.000Z</time>
      </trkpt>
      <trkpt lat="48.70892" lon="2.03681">
        <ele>81</ele>
        <time>2025-07-06T14:47:07.000Z</time>
      </trkpt>
      <trkpt lat="48.70908" lon="2.03706">
        <ele>75</ele>
        <time>2025-07-06T14:47:29.000Z</time>
      </trkpt>
      <trkpt lat="48.70914" lon="2.03741">
        <ele>85</ele>
        <time>2025-07-06T14:47:49.000Z</time>
      </trkpt>
      <trkpt lat="48.70921" lon="2.03773">
        <ele>89</ele>
        <time>2025-07-06T14:48:05.000Z</time>
      </trkpt>
      <trkpt lat="48.70939" lon="2.03795">
        <ele>92</ele>
        <time>2025-07-06T14:48:34.000Z</time>
      </trkpt>
      <trkpt lat="48.70922" lon="2.0382">
        <ele>86</ele>
        <time>2025-07-06T14:49:06.000Z</time>
      </trkpt>
      <trkpt lat="48.70905" lon="2.03843">
        <ele>86</ele>
        <time>2025-07-06T14:49:26.000Z</time>
      </trkpt>
      <trkpt lat="48.70884" lon="2.03858">
        <ele>90</ele>
        <time>2025-07-06T14:49:43.000Z</time>
      </trkpt>
      <trkpt lat="48.70906" lon="2.0387">
        <ele>92</ele>
        <time>2025-07-06T14:50:00.000Z</time>
      </trkpt>
      <trkpt lat="48.70928" lon="2.03879">
        <ele>96</ele>
        <time>2025-07-06T14:50:26.000Z</time>
      </trkpt>
      <trkpt lat="48.7095" lon="2.03882">
        <ele>96</ele>
        <time>2025-07-06T14:50:47.000Z</time>
      </trkpt>
      <trkpt lat="48.70969" lon="2.03903">
        <ele>100</ele>
        <time>2025-07-06T14:51:09.000Z</time>
      </trkpt>
      <trkpt lat="48.70988" lon="2.03924">
        <ele>102</ele>
        <time>2025-07-06T14:51:31.000Z</time>
      </trkpt>
      <trkpt lat="48.70993" lon="2.03958">
        <ele>105</ele>
        <time>2025-07-06T14:52:00.000Z</time>
      </trkpt>
      <trkpt lat="48.7099" lon="2.03992">
        <ele>111</ele>
        <time>2025-07-06T14:52:24.000Z</time>
      </trkpt>
      <trkpt lat="48.70989" lon="2.04026">
        <ele>111</ele>
        <time>2025-07-06T14:52:46.000Z</time>
      </trkpt>
      <trkpt lat="48.70979" lon="2.04059">
        <ele>115</ele>
        <time>2025-07-06T14:53:05.000Z</time>
      </trkpt>
      <trkpt lat="48.70999" lon="2.0404">
        <ele>120</ele>
        <time>2025-07-06T14:53:38.000Z</time>
      </trkpt>
      <trkpt lat="48.71012" lon="2.04068">
        <ele>129</ele>
        <time>2025-07-06T14:54:36.000Z</time>
      </trkpt>
      <trkpt lat="48.71016" lon="2.04102">
        <ele>136</ele>
        <time>2025-07-06T14:55:22.000Z</time>
      </trkpt>
      <trkpt lat="48.71039" lon="2.04111">
        <ele>141</ele>
        <time>2025-07-06T14:56:11.000Z</time>
      </trkpt>
      <trkpt lat="48.71022" lon="2.04133">
        <ele>145</ele>
        <time>2025-07-06T14:56:52.000Z</time>
      </trkpt>
      <trkpt lat="48.71011" lon="2.04164">
        <ele>150</ele>
        <time>2025-07-06T14:57:57.000Z</time>
      </trkpt>
      <trkpt lat="48.71013" lon="2.04198">
        <ele>153</ele>
        <time>2025-07-06T14:58:24.000Z</time>
      </trkpt>
      <trkpt lat="48.70992" lon="2.0421">
        <ele>153</ele>
        <time>2025-07-06T14:59:05.000Z</time>
      </trkpt>
      <trkpt lat="48.7095" lon="2.04232">
        <ele>143</ele>
        <time>2025-07-06T15:01:19.000Z</time>
      </trkpt>
      <trkpt lat="48.70977" lon="2.04223">
        <ele>140</ele>
        <time>2025-07-06T15:01:26.000Z</time>
      </trkpt>
      <trkpt lat="48.70984" lon="2.04189">
        <ele>149</ele>
        <time>2025-07-06T15:03:57.000Z</time>
      </trkpt>
      <trkpt lat="48.70963" lon="2.04204">
        <ele>152</ele>
        <time>2025-07-06T15:05:05.000Z</time>
      </trkpt>
      <trkpt lat="48.70982" lon="2.04186">
        <ele>148</ele>
        <time>2025-07-06T15:06:59.000Z</time>
      </trkpt>
      <trkpt lat="48.70994" lon="2.04215">
        <ele>152</ele>
        <time>2025-07-06T15:10:35.000Z</time>
      </trkpt>
      <trkpt lat="48.71012" lon="2.04193">
        <ele>149</ele>
        <time>2025-07-06T15:10:57.000Z</time>
      </trkpt>
      <trkpt lat="48.71012" lon="2.04159">
        <ele>149</ele>
        <time>2025-07-06T15:11:21.000Z</time>
      </trkpt>
      <trkpt lat="48.70989" lon="2.04156">
        <ele>143</ele>
        <time>2025-07-06T15:12:20.000Z</time>
      </trkpt>
      <trkpt lat="48.70967" lon="2.0417">
        <ele>137</ele>
        <time>2025-07-06T15:12:52.000Z</time>
      </trkpt>
      <trkpt lat="48.70955" lon="2.042">
        <ele>136</ele>
        <time>2025-07-06T15:13:18.000Z</time>
      </trkpt>
      <trkpt lat="48.70947" lon="2.04166">
        <ele>125</ele>
        <time>2025-07-06T15:14:31.000Z</time>
      </trkpt>
      <trkpt lat="48.70929" lon="2.04189">
        <ele>122</ele>
        <time>2025-07-06T15:15:06.000Z</time>
      </trkpt>
      <trkpt lat="48.70922" lon="2.04222">
        <ele>120</ele>
        <time>2025-07-06T15:15:29.000Z</time>
      </trkpt>
      <trkpt lat="48.70907" lon="2.04196">
        <ele>112</ele>
        <time>2025-07-06T15:16:12.000Z</time>
      </trkpt>
      <trkpt lat="48.70904" lon="2.04162">
        <ele>109</ele>
        <time>2025-07-06T15:16:36.000Z</time>
      </trkpt>
      <trkpt lat="48.70903" lon="2.04127">
        <ele>107</ele>
        <time>2025-07-06T15:16:58.000Z</time>
      </trkpt>
      <trkpt lat="48.70902" lon="2.04091">
        <ele>103</ele>
        <time>2025-07-06T15:17:22.000Z</time>
      </trkpt>
      <trkpt lat="48.70897" lon="2.04058">
        <ele>99</ele>
        <time>2025-07-06T15:17:49.000Z</time>
      </trkpt>
      <trkpt lat="48.709" lon="2.04024">
        <ele>95</ele>
        <time>2025-07-06T15:18:12.000Z</time>
      </trkpt>
      <trkpt lat="48.70877" lon="2.0402">
        <ele>92</ele>
        <time>2025-07-06T15:18:35.000Z</time>
      </trkpt>
      <trkpt lat="48.70852" lon="2.04027">
        <ele>93</ele>
        <time>2025-07-06T15:19:03.000Z</time>
      </trkpt>
      <trkpt lat="48.70838" lon="2.04057">
        <ele>91</ele>
        <time>2025-07-06T15:19:25.000Z</time>
      </trkpt>
      <trkpt lat="48.70816" lon="2.04048">
        <ele>85</ele>
        <time>2025-07-06T15:19:45.000Z</time>
      </trkpt>
      <trkpt lat="48.70814" lon="2.04014">
        <ele>86</ele>
        <time>2025-07-06T15:20:04.000Z</time>
      </trkpt>
      <trkpt lat="48.70816" lon="2.03978">
        <ele>87</ele>
        <time>2025-07-06T15:20:39.000Z</time>
      </trkpt>
      <trkpt lat="48.70816" lon="2.03968">
        <ele>90</ele>
        <time>2025-07-06T15:24:18.000Z</time>
      </trkpt>
      <trkpt lat="48.70811" lon="2.04003">
        <ele>85</ele>
        <time>2025-07-06T15:26:59.000Z</time>
      </trkpt>
      <trkpt lat="48.70809" lon="2.04037">
        <ele>88</ele>
        <time>2025-07-06T15:27:18.000Z</time>
      </trkpt>
      <trkpt lat="48.70786" lon="2.04024">
        <ele>87</ele>
        <time>2025-07-06T15:27:49.000Z</time>
      </trkpt>
      <trkpt lat="48.70771" lon="2.03998">
        <ele>87</ele>
        <time>2025-07-06T15:30:47.000Z</time>
      </trkpt>
      <trkpt lat="48.70753" lon="2.03975">
        <ele>81</ele>
        <time>2025-07-06T16:01:43.000Z</time>
      </trkpt>
      <trkpt lat="48.70748" lon="2.0394">
        <ele>83</ele>
        <time>2025-07-06T16:02:05.000Z</time>
      </trkpt>
      <trkpt lat="48.70742" lon="2.03941">
        <ele>82</ele>
        <time>2025-07-06T16:02:17.000Z</time>
      </trkpt>
      <trkpt lat="48.70728" lon="2.03954">
        <ele>79</ele>
        <time>2025-07-06T16:02:28.000Z</time>
      </trkpt>
      <trkpt lat="48.70708" lon="2.03974">
        <ele>79</ele>
        <time>2025-07-06T16:02:42.000Z</time>
      </trkpt>
      <trkpt lat="48.70685" lon="2.03978">
        <ele>75</ele>
        <time>2025-07-06T16:03:01.000Z</time>
      </trkpt>
      <trkpt lat="48.70668" lon="2.04">
        <ele>75</ele>
        <time>2025-07-06T16:03:40.000Z</time>
      </trkpt>
      <trkpt lat="48.70667" lon="2.04035">
        <ele>76</ele>
        <time>2025-07-06T16:04:05.000Z</time>
      </trkpt>
      <trkpt lat="48.70668" lon="2.0407">
        <ele>77</ele>
        <time>2025-07-06T16:04:36.000Z</time>
      </trkpt>
      <trkpt lat="48.7067" lon="2.04105">
        <ele>78</ele>
        <time>2025-07-06T16:04:58.000Z</time>
      </trkpt>
      <trkpt lat="48.70672" lon="2.0414">
        <ele>79</ele>
        <time>2025-07-06T16:05:20.000Z</time>
      </trkpt>
      <trkpt lat="48.70674" lon="2.04175">
        <ele>78</ele>
        <time>2025-07-06T16:05:41.000Z</time>
      </trkpt>
      <trkpt lat="48.70676" lon="2.04211">
        <ele>76</ele>
        <time>2025-07-06T16:06:19.000Z</time>
      </trkpt>
      <trkpt lat="48.70674" lon="2.04247">
        <ele>76</ele>
        <time>2025-07-06T16:06:39.000Z</time>
      </trkpt>
      <trkpt lat="48.70673" lon="2.04281">
        <ele>77</ele>
        <time>2025-07-06T16:07:25.000Z</time>
      </trkpt>
      <trkpt lat="48.70673" lon="2.04315">
        <ele>79</ele>
        <time>2025-07-06T16:08:02.000Z</time>
      </trkpt>
      <trkpt lat="48.70674" lon="2.0435">
        <ele>81</ele>
        <time>2025-07-06T16:08:51.000Z</time>
      </trkpt>
      <trkpt lat="48.70674" lon="2.04384">
        <ele>75</ele>
        <time>2025-07-06T16:09:14.000Z</time>
      </trkpt>
      <trkpt lat="48.70669" lon="2.04418">
        <ele>76</ele>
        <time>2025-07-06T16:09:33.000Z</time>
      </trkpt>
      <trkpt lat="48.70666" lon="2.04452">
        <ele>74</ele>
        <time>2025-07-06T16:09:56.000Z</time>
      </trkpt>
      <trkpt lat="48.70664" lon="2.04489">
        <ele>77</ele>
        <time>2025-07-06T16:10:17.000Z</time>
      </trkpt>
      <trkpt lat="48.70663" lon="2.04525">
        <ele>80</ele>
        <time>2025-07-06T16:10:38.000Z</time>
      </trkpt>
      <trkpt lat="48.70659" lon="2.04559">
        <ele>80</ele>
        <time>2025-07-06T16:10:55.000Z</time>
      </trkpt>
      <trkpt lat="48.70656" lon="2.04594">
        <ele>81</ele>
        <time>2025-07-06T16:11:14.000Z</time>
      </trkpt>
      <trkpt lat="48.70652" lon="2.04629">
        <ele>81</ele>
        <time>2025-07-06T16:11:37.000Z</time>
      </trkpt>
      <trkpt lat="48.70645" lon="2.04662">
        <ele>85</ele>
        <time>2025-07-06T16:11:59.000Z</time>
      </trkpt>
      <trkpt lat="48.70645" lon="2.04696">
        <ele>79</ele>
        <time>2025-07-06T16:12:26.000Z</time>
      </trkpt>
      <trkpt lat="48.70649" lon="2.0473">
        <ele>80</ele>
        <time>2025-07-06T16:12:44.000Z</time>
      </trkpt>
      <trkpt lat="48.70653" lon="2.04763">
        <ele>78</ele>
        <time>2025-07-06T16:13:01.000Z</time>
      </trkpt>
      <trkpt lat="48.70654" lon="2.04799">
        <ele>78</ele>
        <time>2025-07-06T16:13:20.000Z</time>
      </trkpt>
      <trkpt lat="48.70651" lon="2.04832">
        <ele>79</ele>
        <time>2025-07-06T16:13:41.000Z</time>
      </trkpt>
      <trkpt lat="48.70645" lon="2.04866">
        <ele>79</ele>
        <time>2025-07-06T16:13:58.000Z</time>
      </trkpt>
      <trkpt lat="48.70639" lon="2.049">
        <ele>79</ele>
        <time>2025-07-06T16:14:27.000Z</time>
      </trkpt>
      <trkpt lat="48.70637" lon="2.04937">
        <ele>78</ele>
        <time>2025-07-06T16:14:46.000Z</time>
      </trkpt>
      <trkpt lat="48.70633" lon="2.04971">
        <ele>77</ele>
        <time>2025-07-06T16:15:13.000Z</time>
      </trkpt>
      <trkpt lat="48.70626" lon="2.05004">
        <ele>78</ele>
        <time>2025-07-06T16:15:32.000Z</time>
      </trkpt>
      <trkpt lat="48.70619" lon="2.05038">
        <ele>77</ele>
        <time>2025-07-06T16:15:58.000Z</time>
      </trkpt>
      <trkpt lat="48.70614" lon="2.05072">
        <ele>78</ele>
        <time>2025-07-06T16:16:16.000Z</time>
      </trkpt>
      <trkpt lat="48.70608" lon="2.05105">
        <ele>78</ele>
        <time>2025-07-06T16:16:34.000Z</time>
      </trkpt>
      <trkpt lat="48.70603" lon="2.05139">
        <ele>78</ele>
        <time>2025-07-06T16:16:50.000Z</time>
      </trkpt>
      <trkpt lat="48.70584" lon="2.05156">
        <ele>76</ele>
        <time>2025-07-06T16:17:16.000Z</time>
      </trkpt>
      <trkpt lat="48.70563" lon="2.05174">
        <ele>76</ele>
        <time>2025-07-06T16:17:34.000Z</time>
      </trkpt>
      <trkpt lat="48.70561" lon="2.05208">
        <ele>77</ele>
        <time>2025-07-06T16:17:57.000Z</time>
      </trkpt>
      <trkpt lat="48.70541" lon="2.05229">
        <ele>73</ele>
        <time>2025-07-06T16:18:23.000Z</time>
      </trkpt>
      <trkpt lat="48.70527" lon="2.05259">
        <ele>74</ele>
        <time>2025-07-06T16:18:43.000Z</time>
      </trkpt>
      <trkpt lat="48.70511" lon="2.05283">
        <ele>75</ele>
        <time>2025-07-06T16:19:01.000Z</time>
      </trkpt>
      <trkpt lat="48.70509" lon="2.05317">
        <ele>74</ele>
        <time>2025-07-06T16:19:17.000Z</time>
      </trkpt>
      <trkpt lat="48.70501" lon="2.05349">
        <ele>74</ele>
        <time>2025-07-06T16:19:36.000Z</time>
      </trkpt>
      <trkpt lat="48.70487" lon="2.05377">
        <ele>74</ele>
        <time>2025-07-06T16:19:55.000Z</time>
      </trkpt>
      <trkpt lat="48.70475" lon="2.05407">
        <ele>76</ele>
        <time>2025-07-06T16:20:11.000Z</time>
      </trkpt>
      <trkpt lat="48.70462" lon="2.05436">
        <ele>74</ele>
        <time>2025-07-06T16:20:32.000Z</time>
      </trkpt>
      <trkpt lat="48.7045" lon="2.05466">
        <ele>73</ele>
        <time>2025-07-06T16:20:50.000Z</time>
      </trkpt>
      <trkpt lat="48.70439" lon="2.05496">
        <ele>75</ele>
        <time>2025-07-06T16:21:09.000Z</time>
      </trkpt>
      <trkpt lat="48.70431" lon="2.05529">
        <ele>76</ele>
        <time>2025-07-06T16:21:27.000Z</time>
      </trkpt>
      <trkpt lat="48.70414" lon="2.05552">
        <ele>74</ele>
        <time>2025-07-06T16:22:04.000Z</time>
      </trkpt>
      <trkpt lat="48.70391" lon="2.05564">
        <ele>73</ele>
        <time>2025-07-06T16:22:46.000Z</time>
      </trkpt>
      <trkpt lat="48.70368" lon="2.05567">
        <ele>74</ele>
        <time>2025-07-06T16:23:05.000Z</time>
      </trkpt>
      <trkpt lat="48.70345" lon="2.05565">
        <ele>76</ele>
        <time>2025-07-06T16:23:24.000Z</time>
      </trkpt>
      <trkpt lat="48.70322" lon="2.0556">
        <ele>75</ele>
        <time>2025-07-06T16:23:42.000Z</time>
      </trkpt>
      <trkpt lat="48.703" lon="2.05554">
        <ele>75</ele>
        <time>2025-07-06T16:24:00.000Z</time>
      </trkpt>
      <trkpt lat="48.70277" lon="2.0555">
        <ele>75</ele>
        <time>2025-07-06T16:24:19.000Z</time>
      </trkpt>
      <trkpt lat="48.70255" lon="2.05546">
        <ele>78</ele>
        <time>2025-07-06T16:24:36.000Z</time>
      </trkpt>
      <trkpt lat="48.70233" lon="2.05565">
        <ele>80</ele>
        <time>2025-07-06T16:24:57.000Z</time>
      </trkpt>
      <trkpt lat="48.70232" lon="2.05599">
        <ele>83</ele>
        <time>2025-07-06T16:25:38.000Z</time>
      </trkpt>
      <trkpt lat="48.70237" lon="2.05633">
        <ele>85</ele>
        <time>2025-07-06T16:25:56.000Z</time>
      </trkpt>
      <trkpt lat="48.70244" lon="2.05666">
        <ele>85</ele>
        <time>2025-07-06T16:26:15.000Z</time>
      </trkpt>
      <trkpt lat="48.70252" lon="2.05699">
        <ele>86</ele>
        <time>2025-07-06T16:26:33.000Z</time>
      </trkpt>
      <trkpt lat="48.70261" lon="2.0573">
        <ele>85</ele>
        <time>2025-07-06T16:26:52.000Z</time>
      </trkpt>
      <trkpt lat="48.70267" lon="2.05766">
        <ele>83</ele>
        <time>2025-07-06T16:27:15.000Z</time>
      </trkpt>
      <trkpt lat="48.70267" lon="2.05802">
        <ele>82</ele>
        <time>2025-07-06T16:27:35.000Z</time>
      </trkpt>
      <trkpt lat="48.70266" lon="2.05836">
        <ele>84</ele>
        <time>2025-07-06T16:27:52.000Z</time>
      </trkpt>
      <trkpt lat="48.70265" lon="2.05871">
        <ele>84</ele>
        <time>2025-07-06T16:28:11.000Z</time>
      </trkpt>
      <trkpt lat="48.70264" lon="2.05905">
        <ele>83</ele>
        <time>2025-07-06T16:28:29.000Z</time>
      </trkpt>
      <trkpt lat="48.70262" lon="2.0594">
        <ele>84</ele>
        <time>2025-07-06T16:28:48.000Z</time>
      </trkpt>
      <trkpt lat="48.70262" lon="2.05974">
        <ele>84</ele>
        <time>2025-07-06T16:29:07.000Z</time>
      </trkpt>
      <trkpt lat="48.7026" lon="2.06008">
        <ele>84</ele>
        <time>2025-07-06T16:29:24.000Z</time>
      </trkpt>
      <trkpt lat="48.70259" lon="2.06043">
        <ele>83</ele>
        <time>2025-07-06T16:29:42.000Z</time>
      </trkpt>
      <trkpt lat="48.70258" lon="2.06078">
        <ele>82</ele>
        <time>2025-07-06T16:30:01.000Z</time>
      </trkpt>
      <trkpt lat="48.70256" lon="2.06112">
        <ele>82</ele>
        <time>2025-07-06T16:30:20.000Z</time>
      </trkpt>
      <trkpt lat="48.70254" lon="2.06149">
        <ele>84</ele>
        <time>2025-07-06T16:30:39.000Z</time>
      </trkpt>
      <trkpt lat="48.70253" lon="2.06184">
        <ele>82</ele>
        <time>2025-07-06T16:30:58.000Z</time>
      </trkpt>
      <trkpt lat="48.70248" lon="2.06218">
        <ele>83</ele>
        <time>2025-07-06T16:31:18.000Z</time>
      </trkpt>
      <trkpt lat="48.70239" lon="2.0625">
        <ele>84</ele>
        <time>2025-07-06T16:31:36.000Z</time>
      </trkpt>
      <trkpt lat="48.70232" lon="2.06283">
        <ele>84</ele>
        <time>2025-07-06T16:31:55.000Z</time>
      </trkpt>
      <trkpt lat="48.70227" lon="2.06316">
        <ele>85</ele>
        <time>2025-07-06T16:32:10.000Z</time>
      </trkpt>
      <trkpt lat="48.70225" lon="2.06351">
        <ele>87</ele>
        <time>2025-07-06T16:32:27.000Z</time>
      </trkpt>
      <trkpt lat="48.70226" lon="2.06385">
        <ele>85</ele>
        <time>2025-07-06T16:32:46.000Z</time>
      </trkpt>
      <trkpt lat="48.70224" lon="2.06419">
        <ele>87</ele>
        <time>2025-07-06T16:33:03.000Z</time>
      </trkpt>
      <trkpt lat="48.70224" lon="2.06454">
        <ele>83</ele>
        <time>2025-07-06T16:33:22.000Z</time>
      </trkpt>
      <trkpt lat="48.70224" lon="2.0649">
        <ele>82</ele>
        <time>2025-07-06T16:33:40.000Z</time>
      </trkpt>
      <trkpt lat="48.70222" lon="2.06524">
        <ele>84</ele>
        <time>2025-07-06T16:33:56.000Z</time>
      </trkpt>
      <trkpt lat="48.70222" lon="2.06558">
        <ele>81</ele>
        <time>2025-07-06T16:34:13.000Z</time>
      </trkpt>
      <trkpt lat="48.70231" lon="2.0659">
        <ele>80</ele>
        <time>2025-07-06T16:34:33.000Z</time>
      </trkpt>
      <trkpt lat="48.70238" lon="2.06622">
        <ele>81</ele>
        <time>2025-07-06T16:34:49.000Z</time>
      </trkpt>
      <trkpt lat="48.70245" lon="2.06656">
        <ele>82</ele>
        <time>2025-07-06T16:35:08.000Z</time>
      </trkpt>
      <trkpt lat="48.70252" lon="2.06691">
        <ele>79</ele>
        <time>2025-07-06T16:35:26.000Z</time>
      </trkpt>
      <trkpt lat="48.70258" lon="2.06724">
        <ele>79</ele>
        <time>2025-07-06T16:35:45.000Z</time>
      </trkpt>
      <trkpt lat="48.70263" lon="2.06758">
        <ele>80</ele>
        <time>2025-07-06T16:36:03.000Z</time>
      </trkpt>
      <trkpt lat="48.70264" lon="2.06793">
        <ele>81</ele>
        <time>2025-07-06T16:36:19.000Z</time>
      </trkpt>
      <trkpt lat="48.70272" lon="2.06827">
        <ele>80</ele>
        <time>2025-07-06T16:36:37.000Z</time>
      </trkpt>
      <trkpt lat="48.70282" lon="2.06859">
        <ele>81</ele>
        <time>2025-07-06T16:36:55.000Z</time>
      </trkpt>
      <trkpt lat="48.70295" lon="2.06887">
        <ele>80</ele>
        <time>2025-07-06T16:37:13.000Z</time>
      </trkpt>
      <trkpt lat="48.70308" lon="2.06915">
        <ele>78</ele>
        <time>2025-07-06T16:37:32.000Z</time>
      </trkpt>
      <trkpt lat="48.70317" lon="2.06949">
        <ele>79</ele>
        <time>2025-07-06T16:37:55.000Z</time>
      </trkpt>
      <trkpt lat="48.70308" lon="2.06981">
        <ele>77</ele>
        <time>2025-07-06T16:38:20.000Z</time>
      </trkpt>
      <trkpt lat="48.70291" lon="2.07004">
        <ele>80</ele>
        <time>2025-07-06T16:38:41.000Z</time>
      </trkpt>
      <trkpt lat="48.70288" lon="2.07039">
        <ele>82</ele>
        <time>2025-07-06T16:39:01.000Z</time>
      </trkpt>
      <trkpt lat="48.70285" lon="2.07073">
        <ele>85</ele>
        <time>2025-07-06T16:39:22.000Z</time>
      </trkpt>
    </trkseg>
  </trk>
</gpx>